AFR467 EDDP-KCVG
Flight info
| Callsign | AFR467 |
|---|---|
| Flight time | N/A |
| Altitude | 28000 |
| Route | PENEM1E PENEM Y233 EMBOX L986 POVEL DCT GALSO Q63 KOPUL DCT ENHAQ DCT GAJIT DCT BAPHU DCT ARKIL/M082F280 DCT SOMAX DCT 50N020W 49N030W 47N040W 44N050W/M082F300 41N060W/M082F320 DCT JOBOC/N0481F320 DCT LINND DCT OWENZ DCT SUBBS DCT CYN J110 AIR DCT SHIRT DCT MXQ DCT TIGRR TIGRR4 |
| Aircraft | B77L/H-SDE1E2E3FGHIJ2J3J4J5M1RWXY/LB1D1 |
Departure
| Time | 2026-05-08 00:35 |
|---|---|
| Airport | Leipzig/Halle Airport (EDDP) |
Arrival
| Time | N/A |
|---|---|
| Airport | Cincinnati Northern Kentucky International Airport (KCVG) |
| Time | Latitude | Longitude | Altitude | Speed | Heading |
|---|---|---|---|---|---|
| 2026-05-08 00:28 | 51.40808 | 12.20191 | 441 ft | 0 kts | 176° |
| 2026-05-08 00:30 | 51.40811 | 12.20190 | 441 ft | 3 kts | 175° |
| 2026-05-08 00:30 | 51.40837 | 12.20186 | 433 ft | 4 kts | 171° |
| 2026-05-08 00:31 | 51.40864 | 12.20178 | 426 ft | 4 kts | 165° |
| 2026-05-08 00:31 | 51.40889 | 12.20164 | 426 ft | 4 kts | 153° |
| 2026-05-08 00:31 | 51.40910 | 12.20141 | 426 ft | 4 kts | 115° |
| 2026-05-08 00:31 | 51.40913 | 12.20125 | 427 ft | 3 kts | 85° |
| 2026-05-08 00:33 | 51.40914 | 12.20145 | 426 ft | 8 kts | 85° |
| 2026-05-08 00:33 | 51.40920 | 12.20257 | 437 ft | 11 kts | 85° |
| 2026-05-08 00:33 | 51.40927 | 12.20375 | 441 ft | 11 kts | 77° |
| 2026-05-08 00:34 | 51.40978 | 12.20452 | 428 ft | 11 kts | 18° |
| 2026-05-08 00:34 | 51.41050 | 12.20484 | 429 ft | 11 kts | 14° |
| 2026-05-08 00:34 | 51.41122 | 12.20519 | 435 ft | 11 kts | 27° |
| 2026-05-08 00:34 | 51.41168 | 12.20648 | 432 ft | 22 kts | 81° |
| 2026-05-08 00:35 | 51.41196 | 12.21203 | 451 ft | 87 kts | 85° |
| 2026-05-08 00:35 | 51.41259 | 12.22558 | 467 ft | 159 kts | 85° |
| 2026-05-08 00:35 | 51.41349 | 12.24651 | 568 ft | 206 kts | 86° |
| 2026-05-08 00:35 | 51.41431 | 12.26912 | 1363 ft | 202 kts | 85° |
| 2026-05-08 00:36 | 51.41549 | 12.29173 | 2184 ft | 207 kts | 84° |
| 2026-05-08 00:36 | 51.41689 | 12.31602 | 2488 ft | 228 kts | 84° |
| 2026-05-08 00:36 | 51.41839 | 12.34196 | 2892 ft | 242 kts | 84° |
| 2026-05-08 00:36 | 51.42008 | 12.36948 | 3301 ft | 253 kts | 81° |
| 2026-05-08 00:37 | 51.42634 | 12.39606 | 3756 ft | 261 kts | 53° |
| 2026-05-08 00:37 | 51.43970 | 12.41571 | 4412 ft | 264 kts | 30° |
| 2026-05-08 00:37 | 51.45692 | 12.42578 | 5079 ft | 267 kts | 6° |
| 2026-05-08 00:38 | 51.49364 | 12.41334 | 6181 ft | 276 kts | 345° |
| 2026-05-08 00:38 | 51.51225 | 12.40512 | 6883 ft | 277 kts | 346° |
| 2026-05-08 00:38 | 51.53092 | 12.39708 | 7542 ft | 279 kts | 346° |
| 2026-05-08 00:38 | 51.54971 | 12.38872 | 8141 ft | 281 kts | 340° |
| 2026-05-08 00:39 | 51.56611 | 12.37172 | 8573 ft | 289 kts | 309° |
| 2026-05-08 00:39 | 51.57544 | 12.34310 | 9112 ft | 290 kts | 289° |
| 2026-05-08 00:39 | 51.58184 | 12.31202 | 9625 ft | 296 kts | 290° |
| 2026-05-08 00:39 | 51.58862 | 12.28054 | 10215 ft | 298 kts | 290° |
| 2026-05-08 00:40 | 51.59550 | 12.24857 | 10571 ft | 311 kts | 290° |
| 2026-05-08 00:40 | 51.60288 | 12.21481 | 10705 ft | 328 kts | 294° |
| 2026-05-08 00:40 | 51.61554 | 12.18385 | 10801 ft | 341 kts | 320° |
| 2026-05-08 00:40 | 51.63552 | 12.16213 | 10929 ft | 354 kts | 330° |
| 2026-05-08 00:41 | 51.65699 | 12.14131 | 11312 ft | 365 kts | 328° |
| 2026-05-08 00:41 | 51.67876 | 12.11917 | 11807 ft | 374 kts | 328° |
| 2026-05-08 00:41 | 51.70083 | 12.09647 | 12474 ft | 378 kts | 327° |
| 2026-05-08 00:41 | 51.72155 | 12.07056 | 12992 ft | 380 kts | 315° |
| 2026-05-08 00:42 | 51.73896 | 12.03884 | 13587 ft | 385 kts | 310° |
| 2026-05-08 00:42 | 51.75635 | 12.00590 | 14251 ft | 387 kts | 311° |
| 2026-05-08 00:42 | 51.77420 | 11.97312 | 14848 ft | 390 kts | 311° |
| 2026-05-08 00:42 | 51.79238 | 11.94044 | 15475 ft | 392 kts | 311° |
| 2026-05-08 00:43 | 51.81078 | 11.90774 | 16095 ft | 395 kts | 311° |
| 2026-05-08 00:43 | 51.82954 | 11.87442 | 16707 ft | 397 kts | 311° |
| 2026-05-08 00:43 | 51.84786 | 11.84153 | 17298 ft | 400 kts | 309° |
| 2026-05-08 00:43 | 51.86486 | 11.80571 | 17881 ft | 402 kts | 303° |
| 2026-05-08 00:44 | 51.88063 | 11.76821 | 18444 ft | 404 kts | 303° |
| 2026-05-08 00:44 | 51.89648 | 11.73030 | 18908 ft | 409 kts | 303° |
| 2026-05-08 00:44 | 51.91243 | 11.69229 | 19381 ft | 412 kts | 303° |
| 2026-05-08 00:44 | 51.92864 | 11.65385 | 19880 ft | 414 kts | 303° |
| 2026-05-08 00:45 | 51.94498 | 11.61526 | 20375 ft | 416 kts | 304° |
| 2026-05-08 00:45 | 51.96142 | 11.57647 | 20846 ft | 420 kts | 304° |
| 2026-05-08 00:45 | 51.97801 | 11.53731 | 21297 ft | 423 kts | 304° |
| 2026-05-08 00:45 | 51.99473 | 11.49780 | 21769 ft | 426 kts | 304° |
| 2026-05-08 00:46 | 52.01159 | 11.45791 | 22237 ft | 429 kts | 304° |
| 2026-05-08 00:46 | 52.02852 | 11.41776 | 22696 ft | 432 kts | 304° |
| 2026-05-08 00:46 | 52.04444 | 11.37630 | 23147 ft | 434 kts | 297° |
| 2026-05-08 00:46 | 52.05687 | 11.33217 | 23582 ft | 437 kts | 290° |
| 2026-05-08 00:47 | 52.06654 | 11.28538 | 24018 ft | 438 kts | 284° |
| 2026-05-08 00:47 | 52.07327 | 11.23707 | 24427 ft | 439 kts | 282° |
| 2026-05-08 00:47 | 52.07963 | 11.18842 | 24801 ft | 441 kts | 282° |
| 2026-05-08 00:47 | 52.08607 | 11.13949 | 25181 ft | 444 kts | 282° |
| 2026-05-08 00:48 | 52.09266 | 11.09010 | 25553 ft | 446 kts | 282° |
| 2026-05-08 00:48 | 52.09932 | 11.04074 | 25928 ft | 448 kts | 282° |
| 2026-05-08 00:48 | 52.10606 | 10.99102 | 26298 ft | 451 kts | 282° |
| 2026-05-08 00:48 | 52.11283 | 10.94110 | 26661 ft | 453 kts | 282° |
| 2026-05-08 00:49 | 52.11958 | 10.89103 | 27016 ft | 455 kts | 282° |
| 2026-05-08 00:49 | 52.12519 | 10.84020 | 27346 ft | 457 kts | 276° |
| 2026-05-08 00:49 | 52.12773 | 10.78842 | 27661 ft | 460 kts | 270° |
| 2026-05-08 00:49 | 52.12699 | 10.73627 | 27999 ft | 462 kts | 268° |
| 2026-05-08 00:50 | 52.12566 | 10.68399 | 28346 ft | 464 kts | 268° |
| 2026-05-08 00:50 | 52.12437 | 10.63214 | 28663 ft | 466 kts | 268° |
| 2026-05-08 00:50 | 52.12309 | 10.57869 | 28977 ft | 468 kts | 268° |
| 2026-05-08 00:50 | 52.12188 | 10.52641 | 29269 ft | 470 kts | 268° |
| 2026-05-08 00:51 | 52.12068 | 10.47322 | 29561 ft | 472 kts | 268° |
| 2026-05-08 00:51 | 52.11948 | 10.41969 | 29836 ft | 474 kts | 268° |
| 2026-05-08 00:51 | 52.11827 | 10.36604 | 30066 ft | 476 kts | 268° |
| 2026-05-08 00:52 | 52.11577 | 10.25793 | 30147 ft | 478 kts | 268° |
| 2026-05-08 00:52 | 52.11318 | 10.15040 | 30138 ft | 473 kts | 268° |
| 2026-05-08 00:53 | 52.11051 | 10.04351 | 30148 ft | 473 kts | 268° |
| 2026-05-08 00:53 | 52.10773 | 9.93671 | 30144 ft | 473 kts | 267° |
| 2026-05-08 00:54 | 52.10486 | 9.82990 | 30152 ft | 473 kts | 267° |
| 2026-05-08 00:54 | 52.10189 | 9.72291 | 30142 ft | 473 kts | 267° |
| 2026-05-08 00:55 | 52.09882 | 9.61599 | 30146 ft | 473 kts | 267° |
| 2026-05-08 00:55 | 52.09565 | 9.50888 | 30146 ft | 474 kts | 266° |
| 2026-05-08 00:56 | 52.09241 | 9.40248 | 30133 ft | 474 kts | 266° |
| 2026-05-08 00:56 | 52.08904 | 9.29548 | 30131 ft | 474 kts | 266° |
| 2026-05-08 00:57 | 52.08558 | 9.18846 | 30131 ft | 474 kts | 266° |
| 2026-05-08 00:57 | 52.08203 | 9.08154 | 30132 ft | 474 kts | 266° |
| 2026-05-08 00:58 | 52.07838 | 8.97456 | 30131 ft | 473 kts | 266° |
| 2026-05-08 00:58 | 52.07462 | 8.86743 | 30133 ft | 473 kts | 266° |
| 2026-05-08 00:59 | 52.07078 | 8.76066 | 30130 ft | 473 kts | 266° |
| 2026-05-08 00:59 | 52.06687 | 8.65458 | 30127 ft | 473 kts | 266° |
| 2026-05-08 01:00 | 52.06283 | 8.54769 | 30128 ft | 473 kts | 266° |
| 2026-05-08 01:00 | 52.05870 | 8.44107 | 30129 ft | 472 kts | 265° |
| 2026-05-08 01:01 | 52.05449 | 8.33458 | 30146 ft | 472 kts | 265° |
| 2026-05-08 01:01 | 52.05018 | 8.22816 | 30128 ft | 472 kts | 265° |
| 2026-05-08 01:02 | 52.04577 | 8.12189 | 30127 ft | 471 kts | 265° |
| 2026-05-08 01:02 | 52.04127 | 8.01557 | 30128 ft | 471 kts | 265° |
| 2026-05-08 01:03 | 52.03672 | 7.91016 | 30131 ft | 470 kts | 265° |
| 2026-05-08 01:03 | 52.03203 | 7.80395 | 30133 ft | 470 kts | 265° |
| 2026-05-08 01:04 | 52.02726 | 7.69814 | 30122 ft | 470 kts | 265° |
| 2026-05-08 01:04 | 52.02240 | 7.59236 | 30120 ft | 469 kts | 265° |
| 2026-05-08 01:05 | 52.01746 | 7.48687 | 30120 ft | 468 kts | 265° |
| 2026-05-08 01:05 | 52.01243 | 7.38149 | 30115 ft | 468 kts | 265° |
| 2026-05-08 01:06 | 52.00730 | 7.27623 | 30122 ft | 468 kts | 265° |
| 2026-05-08 01:06 | 52.00212 | 7.17162 | 30118 ft | 467 kts | 265° |
| 2026-05-08 01:07 | 51.99678 | 7.06591 | 30118 ft | 467 kts | 265° |
| 2026-05-08 01:07 | 51.99139 | 6.96084 | 30113 ft | 467 kts | 265° |
| 2026-05-08 01:08 | 51.98591 | 6.85599 | 30119 ft | 467 kts | 265° |
| 2026-05-08 01:08 | 51.98036 | 6.75176 | 30114 ft | 466 kts | 265° |
| 2026-05-08 01:09 | 51.97470 | 6.64700 | 30108 ft | 466 kts | 264° |
| 2026-05-08 01:09 | 51.96895 | 6.54240 | 30110 ft | 465 kts | 264° |
| 2026-05-08 01:10 | 51.96312 | 6.43795 | 30100 ft | 465 kts | 264° |
| 2026-05-08 01:10 | 51.95718 | 6.33341 | 30108 ft | 465 kts | 264° |
| 2026-05-08 01:11 | 51.95117 | 6.22916 | 30099 ft | 464 kts | 264° |
| 2026-05-08 01:11 | 51.94508 | 6.12516 | 30100 ft | 463 kts | 264° |
| 2026-05-08 01:12 | 51.93891 | 6.02136 | 30097 ft | 462 kts | 264° |
| 2026-05-08 01:12 | 51.93266 | 5.91778 | 30100 ft | 462 kts | 264° |
| 2026-05-08 01:13 | 51.92631 | 5.81422 | 30103 ft | 461 kts | 264° |
| 2026-05-08 01:13 | 51.92098 | 5.72826 | 30099 ft | 461 kts | 264° |
| 2026-05-08 01:14 | 51.91447 | 5.62474 | 30100 ft | 461 kts | 264° |
| 2026-05-08 01:14 | 51.90680 | 5.50461 | 30099 ft | 462 kts | 264° |
| 2026-05-08 01:15 | 51.90119 | 5.41801 | 30097 ft | 462 kts | 264° |
| 2026-05-08 01:15 | 51.89444 | 5.31507 | 30097 ft | 463 kts | 263° |
| 2026-05-08 01:16 | 51.88756 | 5.21147 | 30100 ft | 463 kts | 263° |
| 2026-05-08 01:16 | 51.88057 | 5.10778 | 30098 ft | 464 kts | 263° |
| 2026-05-08 01:17 | 51.87348 | 5.00391 | 30100 ft | 464 kts | 263° |
| 2026-05-08 01:17 | 51.86630 | 4.90012 | 30096 ft | 464 kts | 263° |
| 2026-05-08 01:18 | 51.85902 | 4.79623 | 30100 ft | 464 kts | 263° |
| 2026-05-08 01:18 | 51.85166 | 4.69242 | 30095 ft | 464 kts | 263° |
| 2026-05-08 01:19 | 51.84421 | 4.58884 | 30098 ft | 464 kts | 263° |
| 2026-05-08 01:19 | 51.83667 | 4.48523 | 30103 ft | 464 kts | 263° |
| 2026-05-08 01:20 | 51.82904 | 4.38165 | 30101 ft | 464 kts | 263° |
| 2026-05-08 01:20 | 51.82137 | 4.27880 | 30100 ft | 463 kts | 263° |
| 2026-05-08 01:21 | 51.81356 | 4.17535 | 30100 ft | 463 kts | 262° |
| 2026-05-08 01:21 | 51.80567 | 4.07208 | 30096 ft | 463 kts | 262° |
| 2026-05-08 01:22 | 51.79769 | 3.96873 | 30098 ft | 463 kts | 262° |
| 2026-05-08 01:22 | 51.78960 | 3.86531 | 30099 ft | 464 kts | 262° |
| 2026-05-08 01:23 | 51.78142 | 3.76192 | 30093 ft | 464 kts | 262° |
| 2026-05-08 01:23 | 51.77315 | 3.65851 | 30077 ft | 464 kts | 262° |
| 2026-05-08 01:24 | 51.76480 | 3.55522 | 30088 ft | 464 kts | 262° |
| 2026-05-08 01:24 | 51.75635 | 3.45196 | 30085 ft | 464 kts | 262° |
| 2026-05-08 01:25 | 51.74781 | 3.34860 | 30091 ft | 465 kts | 262° |
| 2026-05-08 01:25 | 51.73923 | 3.24584 | 30089 ft | 466 kts | 261° |
| 2026-05-08 01:26 | 51.73047 | 3.14218 | 30093 ft | 467 kts | 261° |
| 2026-05-08 01:26 | 51.72157 | 3.03847 | 30090 ft | 467 kts | 261° |
| 2026-05-08 01:27 | 51.71252 | 2.93399 | 30084 ft | 468 kts | 261° |
| 2026-05-08 01:27 | 51.70350 | 2.83079 | 30088 ft | 468 kts | 261° |
| 2026-05-08 01:28 | 51.69434 | 2.72697 | 30095 ft | 468 kts | 261° |
| 2026-05-08 01:28 | 51.68507 | 2.62305 | 30092 ft | 468 kts | 261° |
| 2026-05-08 01:29 | 51.67575 | 2.51928 | 30086 ft | 468 kts | 261° |
| 2026-05-08 01:29 | 51.66619 | 2.41557 | 30092 ft | 468 kts | 261° |
| 2026-05-08 01:30 | 51.65642 | 2.31205 | 30092 ft | 468 kts | 260° |
| 2026-05-08 01:30 | 51.64660 | 2.20850 | 30092 ft | 468 kts | 260° |
| 2026-05-08 01:31 | 51.63677 | 2.10556 | 30082 ft | 468 kts | 260° |
| 2026-05-08 01:31 | 51.62738 | 2.00196 | 30095 ft | 468 kts | 261° |
| 2026-05-08 01:32 | 51.61795 | 1.89836 | 30098 ft | 468 kts | 260° |
| 2026-05-08 01:32 | 51.60823 | 1.79475 | 30089 ft | 468 kts | 260° |
| 2026-05-08 01:33 | 51.59850 | 1.69114 | 30084 ft | 469 kts | 260° |
| 2026-05-08 01:33 | 51.58863 | 1.58746 | 30091 ft | 469 kts | 260° |
| 2026-05-08 01:34 | 51.57810 | 1.48398 | 30098 ft | 469 kts | 259° |
| 2026-05-08 01:34 | 51.56737 | 1.38057 | 30089 ft | 469 kts | 259° |
| 2026-05-08 01:35 | 51.55665 | 1.27720 | 30093 ft | 469 kts | 259° |
| 2026-05-08 01:35 | 51.54596 | 1.17461 | 30088 ft | 469 kts | 259° |
| 2026-05-08 01:36 | 51.53891 | 1.06977 | 30094 ft | 470 kts | 265° |
| 2026-05-08 01:36 | 51.53550 | 0.96560 | 30085 ft | 470 kts | 265° |
| 2026-05-08 01:37 | 51.53183 | 0.86061 | 30075 ft | 470 kts | 265° |
| 2026-05-08 01:37 | 51.52788 | 0.75571 | 30082 ft | 470 kts | 265° |
| 2026-05-08 01:38 | 51.52378 | 0.65077 | 30073 ft | 470 kts | 265° |
| 2026-05-08 01:38 | 51.51958 | 0.54585 | 30072 ft | 470 kts | 265° |
| 2026-05-08 01:39 | 51.51530 | 0.44110 | 30087 ft | 470 kts | 264° |
| 2026-05-08 01:39 | 51.51095 | 0.33699 | 30075 ft | 470 kts | 264° |
| 2026-05-08 01:40 | 51.50649 | 0.23231 | 30074 ft | 470 kts | 264° |
| 2026-05-08 01:40 | 51.50193 | 0.12771 | 30075 ft | 469 kts | 264° |
| 2026-05-08 01:41 | 51.49729 | 0.02319 | 30078 ft | 469 kts | 264° |
| 2026-05-08 01:41 | 51.49256 | -0.08111 | 30077 ft | 469 kts | 264° |
| 2026-05-08 01:42 | 51.48774 | -0.18545 | 30068 ft | 468 kts | 264° |
| 2026-05-08 01:42 | 51.48283 | -0.28965 | 30077 ft | 468 kts | 264° |
| 2026-05-08 01:43 | 51.47783 | -0.39386 | 30080 ft | 468 kts | 264° |
| 2026-05-08 01:43 | 51.47273 | -0.49800 | 30075 ft | 468 kts | 264° |
| 2026-05-08 01:44 | 51.46755 | -0.60211 | 30073 ft | 468 kts | 264° |
| 2026-05-08 01:44 | 51.46238 | -0.70397 | 30074 ft | 468 kts | 263° |
| 2026-05-08 01:45 | 51.45704 | -0.80755 | 30067 ft | 468 kts | 263° |
| 2026-05-08 01:45 | 51.45158 | -0.91165 | 30058 ft | 468 kts | 263° |
| 2026-05-08 01:46 | 51.44612 | -1.01398 | 30079 ft | 468 kts | 263° |
| 2026-05-08 01:46 | 51.44047 | -1.11806 | 30063 ft | 469 kts | 263° |
| 2026-05-08 01:47 | 51.43473 | -1.22217 | 30065 ft | 469 kts | 263° |
| 2026-05-08 01:47 | 51.42889 | -1.32629 | 30059 ft | 469 kts | 263° |
| 2026-05-08 01:48 | 51.41999 | -1.48227 | 30046 ft | 469 kts | 262° |
| 2026-05-08 01:48 | 51.41393 | -1.58627 | 30047 ft | 469 kts | 262° |
| 2026-05-08 01:49 | 51.40722 | -1.69033 | 30039 ft | 469 kts | 258° |
| 2026-05-08 01:49 | 51.39131 | -1.79040 | 30044 ft | 465 kts | 248° |
| 2026-05-08 01:50 | 51.36891 | -1.88765 | 30046 ft | 466 kts | 249° |
| 2026-05-08 01:50 | 51.34781 | -1.98573 | 30050 ft | 467 kts | 252° |
| 2026-05-08 01:51 | 51.33553 | -2.08792 | 30047 ft | 470 kts | 260° |
| 2026-05-08 01:51 | 51.32687 | -2.19150 | 30047 ft | 470 kts | 260° |
| 2026-05-08 01:52 | 51.31777 | -2.29509 | 30049 ft | 470 kts | 259° |
| 2026-05-08 01:52 | 51.30842 | -2.39855 | 30053 ft | 470 kts | 259° |
| 2026-05-08 01:53 | 51.29897 | -2.50179 | 30036 ft | 470 kts | 259° |
| 2026-05-08 01:53 | 51.28946 | -2.60495 | 30041 ft | 469 kts | 259° |
| 2026-05-08 01:54 | 51.27985 | -2.70811 | 30042 ft | 468 kts | 259° |
| 2026-05-08 01:54 | 51.27024 | -2.81019 | 30038 ft | 468 kts | 259° |
| 2026-05-08 01:55 | 51.26041 | -2.91364 | 30036 ft | 468 kts | 259° |
| 2026-05-08 01:55 | 51.25062 | -3.01577 | 30031 ft | 468 kts | 259° |
| 2026-05-08 01:56 | 51.24070 | -3.11822 | 30033 ft | 468 kts | 259° |
| 2026-05-08 01:56 | 51.23067 | -3.22085 | 30033 ft | 468 kts | 259° |
| 2026-05-08 01:57 | 51.22056 | -3.32336 | 30034 ft | 468 kts | 259° |
| 2026-05-08 01:57 | 51.21033 | -3.42608 | 30032 ft | 468 kts | 259° |
| 2026-05-08 01:58 | 51.20010 | -3.52799 | 30028 ft | 468 kts | 259° |
| 2026-05-08 01:58 | 51.18971 | -3.63048 | 30025 ft | 468 kts | 259° |
| 2026-05-08 01:59 | 51.17924 | -3.73301 | 30029 ft | 468 kts | 259° |
| 2026-05-08 01:59 | 51.16863 | -3.83551 | 30031 ft | 469 kts | 261° |
| 2026-05-08 02:00 | 51.15793 | -3.93805 | 30030 ft | 469 kts | 261° |
| 2026-05-08 02:00 | 51.14723 | -4.04005 | 30024 ft | 469 kts | 261° |
| 2026-05-08 02:01 | 51.13638 | -4.14253 | 30026 ft | 470 kts | 261° |
| 2026-05-08 02:01 | 51.12720 | -4.22850 | 30025 ft | 470 kts | 260° |
| 2026-05-08 02:02 | 51.11622 | -4.33042 | 30023 ft | 469 kts | 262° |
| 2026-05-08 02:02 | 51.10512 | -4.43270 | 30022 ft | 468 kts | 262° |
| 2026-05-08 02:03 | 51.09396 | -4.53466 | 30023 ft | 467 kts | 262° |
| 2026-05-08 02:03 | 51.08271 | -4.63660 | 30021 ft | 467 kts | 262° |
| 2026-05-08 02:04 | 51.07140 | -4.73820 | 30020 ft | 466 kts | 262° |
| 2026-05-08 02:04 | 51.06001 | -4.83965 | 30018 ft | 466 kts | 263° |
| 2026-05-08 02:05 | 51.04854 | -4.94099 | 30016 ft | 466 kts | 263° |
| 2026-05-08 02:05 | 51.03707 | -5.04161 | 30021 ft | 466 kts | 262° |
| 2026-05-08 02:06 | 51.02541 | -5.14299 | 30023 ft | 466 kts | 262° |
| 2026-05-08 02:06 | 51.01367 | -5.24426 | 30021 ft | 466 kts | 262° |
| 2026-05-08 02:07 | 51.00184 | -5.34551 | 30015 ft | 466 kts | 262° |
| 2026-05-08 02:07 | 50.98992 | -5.44676 | 30023 ft | 467 kts | 262° |
| 2026-05-08 02:08 | 50.97788 | -5.54814 | 30022 ft | 467 kts | 262° |
| 2026-05-08 02:08 | 50.96578 | -5.64927 | 30017 ft | 467 kts | 262° |
| 2026-05-08 02:09 | 50.95360 | -5.75029 | 30021 ft | 466 kts | 262° |
| 2026-05-08 02:09 | 50.94143 | -5.85050 | 30017 ft | 465 kts | 262° |
| 2026-05-08 02:10 | 50.92913 | -5.95096 | 30018 ft | 464 kts | 262° |
| 2026-05-08 02:10 | 50.91677 | -6.05120 | 30018 ft | 463 kts | 262° |
| 2026-05-08 02:11 | 50.90432 | -6.15141 | 30018 ft | 462 kts | 261° |
| 2026-05-08 02:11 | 50.89184 | -6.25110 | 30017 ft | 461 kts | 261° |
| 2026-05-08 02:12 | 50.87929 | -6.35067 | 30015 ft | 460 kts | 261° |
| 2026-05-08 02:12 | 50.86668 | -6.44998 | 30016 ft | 459 kts | 261° |
| 2026-05-08 02:13 | 50.85407 | -6.54855 | 30017 ft | 459 kts | 261° |
| 2026-05-08 02:13 | 50.84126 | -6.64807 | 30023 ft | 458 kts | 260° |
| 2026-05-08 02:14 | 50.82845 | -6.74671 | 30016 ft | 457 kts | 260° |
| 2026-05-08 02:14 | 50.81558 | -6.84522 | 30021 ft | 456 kts | 260° |
| 2026-05-08 02:15 | 50.80276 | -6.94264 | 30021 ft | 456 kts | 260° |
| 2026-05-08 02:15 | 50.78977 | -7.04077 | 30025 ft | 455 kts | 260° |
| 2026-05-08 02:16 | 50.77671 | -7.13872 | 30023 ft | 454 kts | 259° |
| 2026-05-08 02:16 | 50.76359 | -7.23634 | 30020 ft | 454 kts | 259° |
| 2026-05-08 02:17 | 50.75043 | -7.33367 | 30021 ft | 453 kts | 259° |
| 2026-05-08 02:17 | 50.73728 | -7.43034 | 30022 ft | 453 kts | 259° |
| 2026-05-08 02:18 | 50.72398 | -7.52741 | 30031 ft | 452 kts | 258° |
| 2026-05-08 02:18 | 50.71061 | -7.62436 | 30020 ft | 451 kts | 258° |
| 2026-05-08 02:19 | 50.69719 | -7.72101 | 30021 ft | 450 kts | 258° |
| 2026-05-08 02:19 | 50.68373 | -7.81744 | 30021 ft | 450 kts | 258° |
| 2026-05-08 02:20 | 50.67018 | -7.91393 | 30022 ft | 450 kts | 258° |
| 2026-05-08 02:20 | 50.65723 | -8.01031 | 30028 ft | 449 kts | 261° |
| 2026-05-08 02:21 | 50.65084 | -8.10812 | 30017 ft | 448 kts | 264° |
| 2026-05-08 02:21 | 50.64477 | -8.20592 | 30020 ft | 448 kts | 264° |
| 2026-05-08 02:22 | 50.63844 | -8.30375 | 30019 ft | 448 kts | 264° |
| 2026-05-08 02:22 | 50.63203 | -8.40072 | 30020 ft | 448 kts | 264° |
| 2026-05-08 02:23 | 50.62550 | -8.49835 | 30019 ft | 448 kts | 263° |
| 2026-05-08 02:23 | 50.61884 | -8.59648 | 30017 ft | 447 kts | 263° |
| 2026-05-08 02:24 | 50.61217 | -8.69381 | 30013 ft | 447 kts | 263° |
| 2026-05-08 02:24 | 50.60546 | -8.79046 | 30014 ft | 447 kts | 263° |
| 2026-05-08 02:25 | 50.59862 | -8.88774 | 30025 ft | 446 kts | 262° |
| 2026-05-08 02:25 | 50.59171 | -8.98489 | 30016 ft | 446 kts | 262° |
| 2026-05-08 02:26 | 50.58473 | -9.08178 | 30013 ft | 445 kts | 262° |
| 2026-05-08 02:26 | 50.57768 | -9.17859 | 30010 ft | 445 kts | 262° |
| 2026-05-08 02:27 | 50.57055 | -9.27537 | 30011 ft | 445 kts | 262° |
| 2026-05-08 02:27 | 50.56334 | -9.37215 | 30022 ft | 445 kts | 262° |
| 2026-05-08 02:28 | 50.55609 | -9.46829 | 30009 ft | 445 kts | 262° |
| 2026-05-08 02:28 | 50.54872 | -9.56487 | 30010 ft | 445 kts | 262° |
| 2026-05-08 02:29 | 50.54127 | -9.66145 | 30010 ft | 445 kts | 261° |
| 2026-05-08 02:29 | 50.53375 | -9.75797 | 30012 ft | 445 kts | 261° |
| 2026-05-08 02:30 | 50.52615 | -9.85441 | 30009 ft | 444 kts | 261° |
| 2026-05-08 02:30 | 50.51848 | -9.95071 | 30010 ft | 445 kts | 261° |
| 2026-05-08 02:31 | 50.51071 | -10.04720 | 30009 ft | 445 kts | 261° |
| 2026-05-08 02:31 | 50.50291 | -10.14307 | 30008 ft | 445 kts | 261° |
| 2026-05-08 02:32 | 50.49499 | -10.23946 | 30010 ft | 445 kts | 261° |
| 2026-05-08 02:32 | 50.48700 | -10.33578 | 30008 ft | 445 kts | 261° |
| 2026-05-08 02:33 | 50.47892 | -10.43205 | 30005 ft | 445 kts | 261° |
| 2026-05-08 02:33 | 50.47076 | -10.52830 | 30006 ft | 445 kts | 261° |
| 2026-05-08 02:34 | 50.46251 | -10.62455 | 30001 ft | 445 kts | 260° |
| 2026-05-08 02:34 | 50.45427 | -10.71995 | 30018 ft | 444 kts | 260° |
| 2026-05-08 02:35 | 50.44587 | -10.81616 | 30000 ft | 444 kts | 260° |
| 2026-05-08 02:35 | 50.43740 | -10.91217 | 29997 ft | 444 kts | 260° |
| 2026-05-08 02:36 | 50.42886 | -11.00808 | 30004 ft | 444 kts | 260° |
| 2026-05-08 02:36 | 50.42024 | -11.10396 | 30001 ft | 444 kts | 259° |
| 2026-05-08 02:37 | 50.41155 | -11.19973 | 30012 ft | 444 kts | 259° |
| 2026-05-08 02:37 | 50.40278 | -11.29552 | 29996 ft | 444 kts | 259° |
| 2026-05-08 02:38 | 50.39392 | -11.39134 | 29995 ft | 444 kts | 259° |
| 2026-05-08 02:38 | 50.38499 | -11.48706 | 29994 ft | 444 kts | 259° |
| 2026-05-08 02:39 | 50.37604 | -11.58216 | 29992 ft | 444 kts | 259° |
| 2026-05-08 02:39 | 50.36696 | -11.67773 | 29988 ft | 444 kts | 258° |
| 2026-05-08 02:40 | 50.35779 | -11.77333 | 29998 ft | 444 kts | 258° |
| 2026-05-08 02:40 | 50.34855 | -11.86888 | 30002 ft | 444 kts | 258° |
| 2026-05-08 02:41 | 50.33923 | -11.96441 | 29989 ft | 444 kts | 258° |
| 2026-05-08 02:41 | 50.32982 | -12.05998 | 29989 ft | 444 kts | 258° |
| 2026-05-08 02:42 | 50.32034 | -12.15544 | 29993 ft | 444 kts | 258° |
| 2026-05-08 02:42 | 50.31078 | -12.25088 | 29991 ft | 444 kts | 258° |
| 2026-05-08 02:43 | 50.30114 | -12.34634 | 29997 ft | 444 kts | 258° |
| 2026-05-08 02:43 | 50.29149 | -12.44106 | 29989 ft | 444 kts | 258° |
| 2026-05-08 02:44 | 50.28171 | -12.53635 | 29999 ft | 444 kts | 257° |
| 2026-05-08 02:44 | 50.27182 | -12.63171 | 29993 ft | 444 kts | 257° |
| 2026-05-08 02:45 | 50.26186 | -12.72713 | 29991 ft | 445 kts | 257° |
| 2026-05-08 02:45 | 50.25180 | -12.82258 | 29986 ft | 445 kts | 257° |
| 2026-05-08 02:46 | 50.24167 | -12.91802 | 29982 ft | 445 kts | 257° |
| 2026-05-08 02:46 | 50.23144 | -13.01360 | 29996 ft | 446 kts | 257° |
| 2026-05-08 02:47 | 50.22288 | -13.09299 | 29988 ft | 446 kts | 257° |
| 2026-05-08 02:47 | 50.21249 | -13.18865 | 29985 ft | 446 kts | 257° |
| 2026-05-08 02:48 | 50.20204 | -13.28410 | 29984 ft | 446 kts | 256° |
| 2026-05-08 02:48 | 50.19150 | -13.37956 | 29981 ft | 446 kts | 256° |
| 2026-05-08 02:49 | 50.18088 | -13.47507 | 29987 ft | 447 kts | 256° |
| 2026-05-08 02:49 | 50.17023 | -13.57006 | 29977 ft | 447 kts | 256° |
| 2026-05-08 02:50 | 50.15944 | -13.66562 | 29985 ft | 447 kts | 256° |
| 2026-05-08 02:50 | 50.14856 | -13.76116 | 29979 ft | 447 kts | 256° |
| 2026-05-08 02:51 | 50.13761 | -13.85664 | 29976 ft | 448 kts | 256° |
| 2026-05-08 02:51 | 50.12654 | -13.95237 | 29980 ft | 448 kts | 256° |
| 2026-05-08 02:52 | 50.11542 | -14.04793 | 29971 ft | 448 kts | 256° |
| 2026-05-08 02:52 | 50.10419 | -14.14358 | 29982 ft | 449 kts | 256° |
| 2026-05-08 02:53 | 50.09290 | -14.23913 | 29978 ft | 449 kts | 256° |
| 2026-05-08 02:53 | 50.08159 | -14.33412 | 29968 ft | 449 kts | 256° |
| 2026-05-08 02:54 | 50.07012 | -14.42972 | 29970 ft | 449 kts | 255° |
| 2026-05-08 02:54 | 50.05858 | -14.52528 | 29967 ft | 449 kts | 255° |
| 2026-05-08 02:55 | 50.04114 | -14.66835 | 29974 ft | 448 kts | 255° |
| 2026-05-08 02:56 | 50.02942 | -14.76361 | 29988 ft | 448 kts | 255° |
| 2026-05-08 02:56 | 50.01763 | -14.85886 | 29976 ft | 449 kts | 255° |
| 2026-05-08 02:57 | 50.00581 | -14.95424 | 29972 ft | 449 kts | 256° |
| 2026-05-08 02:57 | 50.00042 | -15.05100 | 29971 ft | 456 kts | 266° |
| 2026-05-08 02:58 | 50.00280 | -15.14958 | 29971 ft | 457 kts | 267° |
| 2026-05-08 02:58 | 50.00496 | -15.24838 | 29975 ft | 457 kts | 267° |
| 2026-05-08 02:59 | 50.00688 | -15.34710 | 29977 ft | 457 kts | 266° |
| 2026-05-08 02:59 | 50.00866 | -15.44600 | 29962 ft | 457 kts | 266° |
| 2026-05-08 03:00 | 50.01036 | -15.54483 | 29954 ft | 457 kts | 266° |
| 2026-05-08 03:00 | 50.01198 | -15.64371 | 29962 ft | 457 kts | 266° |
| 2026-05-08 03:01 | 50.01352 | -15.74258 | 29964 ft | 457 kts | 266° |
| 2026-05-08 03:01 | 50.01497 | -15.84161 | 29958 ft | 457 kts | 266° |
| 2026-05-08 03:02 | 50.01633 | -15.93990 | 29959 ft | 457 kts | 266° |
| 2026-05-08 03:02 | 50.01761 | -16.03871 | 29957 ft | 457 kts | 266° |
| 2026-05-08 03:03 | 50.01882 | -16.13778 | 29954 ft | 457 kts | 266° |
| 2026-05-08 03:03 | 50.01994 | -16.23671 | 29958 ft | 457 kts | 266° |
| 2026-05-08 03:04 | 50.02097 | -16.33562 | 29949 ft | 458 kts | 266° |
| 2026-05-08 03:04 | 50.02192 | -16.43460 | 29953 ft | 458 kts | 266° |
| 2026-05-08 03:05 | 50.02278 | -16.53366 | 29948 ft | 458 kts | 265° |
| 2026-05-08 03:05 | 50.02356 | -16.63207 | 29946 ft | 458 kts | 265° |
| 2026-05-08 03:06 | 50.02426 | -16.73103 | 29943 ft | 458 kts | 265° |
| 2026-05-08 03:06 | 50.02487 | -16.83030 | 29936 ft | 457 kts | 265° |
| 2026-05-08 03:07 | 50.02540 | -16.92923 | 29940 ft | 457 kts | 265° |
| 2026-05-08 03:07 | 50.02584 | -17.02757 | 29932 ft | 457 kts | 265° |
| 2026-05-08 03:08 | 50.02621 | -17.12700 | 29953 ft | 457 kts | 265° |
| 2026-05-08 03:08 | 50.02648 | -17.22508 | 29934 ft | 457 kts | 265° |
| 2026-05-08 03:09 | 50.02667 | -17.32391 | 29928 ft | 457 kts | 265° |
| 2026-05-08 03:09 | 50.02679 | -17.42277 | 29931 ft | 456 kts | 264° |
| 2026-05-08 03:10 | 50.02681 | -17.52120 | 29919 ft | 454 kts | 264° |
| 2026-05-08 03:10 | 50.02676 | -17.61918 | 29936 ft | 453 kts | 264° |
| 2026-05-08 03:11 | 50.02661 | -17.71703 | 29921 ft | 452 kts | 264° |
| 2026-05-08 03:11 | 50.02639 | -17.81489 | 29917 ft | 452 kts | 264° |
| 2026-05-08 03:12 | 50.02608 | -17.91253 | 29916 ft | 452 kts | 264° |
| 2026-05-08 03:12 | 50.02569 | -18.01034 | 29905 ft | 452 kts | 264° |
| 2026-05-08 03:13 | 50.02522 | -18.10764 | 29916 ft | 453 kts | 264° |
| 2026-05-08 03:13 | 50.02466 | -18.20569 | 29904 ft | 454 kts | 263° |
| 2026-05-08 03:14 | 50.02403 | -18.30410 | 29911 ft | 455 kts | 263° |
| 2026-05-08 03:14 | 50.02331 | -18.40262 | 29898 ft | 455 kts | 263° |
| 2026-05-08 03:15 | 50.02251 | -18.50112 | 29904 ft | 455 kts | 263° |
| 2026-05-08 03:15 | 50.02161 | -18.59983 | 30023 ft | 458 kts | 263° |
| 2026-05-08 03:15 | 50.02114 | -18.64937 | 30342 ft | 457 kts | 263° |
| 2026-05-08 03:16 | 50.02065 | -18.69873 | 30731 ft | 455 kts | 263° |
| 2026-05-08 03:16 | 50.02015 | -18.74783 | 31115 ft | 453 kts | 263° |
| 2026-05-08 03:16 | 50.01962 | -18.79679 | 31469 ft | 452 kts | 264° |
| 2026-05-08 03:16 | 50.01907 | -18.84503 | 31742 ft | 452 kts | 264° |
| 2026-05-08 03:17 | 50.01848 | -18.89460 | 31823 ft | 454 kts | 264° |
| 2026-05-08 03:17 | 50.01725 | -18.99242 | 31879 ft | 455 kts | 264° |
| 2026-05-08 03:18 | 50.01597 | -19.09069 | 31879 ft | 453 kts | 264° |
| 2026-05-08 03:18 | 50.01460 | -19.18833 | 31882 ft | 451 kts | 264° |
| 2026-05-08 03:19 | 50.01314 | -19.28576 | 31894 ft | 450 kts | 264° |
| 2026-05-08 03:19 | 50.01160 | -19.38312 | 31893 ft | 451 kts | 264° |
| 2026-05-08 03:20 | 50.00998 | -19.48060 | 31895 ft | 451 kts | 264° |
| 2026-05-08 03:20 | 50.00827 | -19.57832 | 31909 ft | 453 kts | 264° |
| 2026-05-08 03:21 | 50.00648 | -19.67653 | 31909 ft | 455 kts | 264° |
| 2026-05-08 03:21 | 50.00460 | -19.77506 | 31911 ft | 457 kts | 264° |
| 2026-05-08 03:22 | 50.00263 | -19.87398 | 31920 ft | 458 kts | 264° |
| 2026-05-08 03:22 | 50.00059 | -19.97291 | 31928 ft | 458 kts | 264° |
| 2026-05-08 03:23 | 49.99649 | -20.07178 | 31946 ft | 458 kts | 262° |
| 2026-05-08 03:23 | 49.99071 | -20.17059 | 31944 ft | 460 kts | 262° |
| 2026-05-08 03:24 | 49.98480 | -20.26958 | 31943 ft | 460 kts | 262° |
| 2026-05-08 03:24 | 49.97898 | -20.36811 | 31952 ft | 461 kts | 262° |
| 2026-05-08 03:25 | 49.97311 | -20.46725 | 31959 ft | 461 kts | 262° |
| 2026-05-08 03:25 | 49.96717 | -20.56662 | 31972 ft | 462 kts | 262° |
| 2026-05-08 03:26 | 49.96115 | -20.66591 | 31968 ft | 461 kts | 262° |
| 2026-05-08 03:26 | 49.95501 | -20.76538 | 31969 ft | 462 kts | 262° |
| 2026-05-08 03:27 | 49.94885 | -20.86415 | 31968 ft | 458 kts | 262° |
| 2026-05-08 03:27 | 49.94262 | -20.96246 | 31982 ft | 457 kts | 263° |
| 2026-05-08 03:28 | 49.93631 | -21.06061 | 31989 ft | 462 kts | 263° |
| 2026-05-08 03:28 | 49.92984 | -21.15997 | 31977 ft | 463 kts | 263° |
| 2026-05-08 03:29 | 49.92327 | -21.25955 | 31994 ft | 464 kts | 263° |
| 2026-05-08 03:29 | 49.91665 | -21.35869 | 31991 ft | 460 kts | 263° |
| 2026-05-08 03:30 | 49.90650 | -21.50786 | 32006 ft | 465 kts | 264° |
| 2026-05-08 03:31 | 49.89263 | -21.70748 | 32008 ft | 467 kts | 264° |
| 2026-05-08 03:32 | 49.88196 | -21.85772 | 32004 ft | 466 kts | 265° |
| 2026-05-08 03:32 | 49.87475 | -21.95766 | 32026 ft | 468 kts | 265° |
| 2026-05-08 03:33 | 49.86743 | -22.05795 | 32024 ft | 468 kts | 264° |
| 2026-05-08 03:33 | 49.86128 | -22.14135 | 32033 ft | 469 kts | 265° |
| 2026-05-08 03:34 | 49.85380 | -22.24168 | 32029 ft | 469 kts | 264° |
| 2026-05-08 03:34 | 49.84620 | -22.34217 | 32034 ft | 469 kts | 265° |
| 2026-05-08 03:35 | 49.83855 | -22.44256 | 32045 ft | 470 kts | 265° |
| 2026-05-08 03:35 | 49.83074 | -22.54324 | 32038 ft | 471 kts | 267° |
| 2026-05-08 03:36 | 49.82286 | -22.64411 | 32052 ft | 472 kts | 266° |
| 2026-05-08 03:36 | 49.81487 | -22.74518 | 32053 ft | 473 kts | 264° |
| 2026-05-08 03:37 | 49.80680 | -22.84623 | 32065 ft | 474 kts | 266° |
| 2026-05-08 03:37 | 49.79859 | -22.94752 | 32063 ft | 475 kts | 265° |
| 2026-05-08 03:38 | 49.79029 | -23.04901 | 32062 ft | 475 kts | 267° |
| 2026-05-08 03:38 | 49.78197 | -23.14983 | 32070 ft | 475 kts | 266° |
| 2026-05-08 03:39 | 49.77348 | -23.25122 | 32050 ft | 475 kts | 266° |
| 2026-05-08 03:39 | 49.76493 | -23.35256 | 32070 ft | 475 kts | 266° |
| 2026-05-08 03:40 | 49.75629 | -23.45394 | 32069 ft | 475 kts | 266° |
| 2026-05-08 03:40 | 49.74754 | -23.55533 | 32072 ft | 476 kts | 266° |
| 2026-05-08 03:41 | 49.73869 | -23.65681 | 32088 ft | 476 kts | 265° |
| 2026-05-08 03:41 | 49.72976 | -23.75823 | 32083 ft | 477 kts | 265° |
| 2026-05-08 03:42 | 49.72073 | -23.85965 | 32093 ft | 477 kts | 265° |
| 2026-05-08 03:42 | 49.71166 | -23.96058 | 32091 ft | 477 kts | 265° |
| 2026-05-08 03:43 | 49.70245 | -24.06194 | 32095 ft | 477 kts | 265° |
| 2026-05-08 03:43 | 49.69314 | -24.16347 | 32083 ft | 476 kts | 266° |
| 2026-05-08 03:44 | 49.68376 | -24.26473 | 32094 ft | 476 kts | 266° |
| 2026-05-08 03:44 | 49.67430 | -24.36592 | 32105 ft | 476 kts | 266° |
| 2026-05-08 03:45 | 49.66472 | -24.46736 | 32106 ft | 477 kts | 266° |
| 2026-05-08 03:45 | 49.65507 | -24.56861 | 32106 ft | 477 kts | 266° |
| 2026-05-08 03:46 | 49.64533 | -24.66975 | 32103 ft | 476 kts | 267° |
| 2026-05-08 03:46 | 49.63551 | -24.77080 | 32122 ft | 476 kts | 267° |
| 2026-05-08 03:47 | 49.62568 | -24.87109 | 32103 ft | 476 kts | 267° |
| 2026-05-08 03:47 | 49.61571 | -24.97179 | 32115 ft | 475 kts | 267° |
| 2026-05-08 03:48 | 49.60564 | -25.07250 | 32099 ft | 474 kts | 268° |
| 2026-05-08 03:48 | 49.59553 | -25.17278 | 32118 ft | 473 kts | 268° |
| 2026-05-08 03:49 | 49.58535 | -25.27299 | 32130 ft | 472 kts | 268° |
| 2026-05-08 03:49 | 49.57510 | -25.37288 | 32125 ft | 472 kts | 268° |
| 2026-05-08 03:50 | 49.56477 | -25.47269 | 32134 ft | 472 kts | 268° |
| 2026-05-08 03:50 | 49.55437 | -25.57214 | 32129 ft | 469 kts | 269° |
| 2026-05-08 03:51 | 49.54392 | -25.67138 | 32138 ft | 468 kts | 269° |
| 2026-05-08 03:51 | 49.53344 | -25.77010 | 32136 ft | 467 kts | 269° |
| 2026-05-08 03:52 | 49.52288 | -25.86879 | 32145 ft | 467 kts | 269° |
| 2026-05-08 03:52 | 49.51222 | -25.96747 | 32119 ft | 466 kts | 270° |
| 2026-05-08 03:53 | 49.50154 | -26.06534 | 32141 ft | 463 kts | 270° |
| 2026-05-08 03:53 | 49.49089 | -26.16236 | 32155 ft | 461 kts | 270° |
| 2026-05-08 03:54 | 49.48014 | -26.25958 | 32156 ft | 460 kts | 270° |
| 2026-05-08 03:54 | 49.46932 | -26.35664 | 32161 ft | 460 kts | 270° |
| 2026-05-08 03:55 | 49.45845 | -26.45335 | 32153 ft | 458 kts | 271° |
| 2026-05-08 03:55 | 49.44754 | -26.54964 | 32161 ft | 457 kts | 271° |
| 2026-05-08 03:56 | 49.43655 | -26.64598 | 32171 ft | 457 kts | 271° |
| 2026-05-08 03:56 | 49.42547 | -26.74224 | 32178 ft | 458 kts | 271° |
| 2026-05-08 03:57 | 49.41437 | -26.83808 | 32118 ft | 458 kts | 270° |
| 2026-05-08 03:57 | 49.40313 | -26.93421 | 32182 ft | 458 kts | 270° |
| 2026-05-08 03:58 | 49.39180 | -27.03055 | 32185 ft | 459 kts | 270° |
| 2026-05-08 03:58 | 49.38037 | -27.12695 | 32189 ft | 459 kts | 270° |
| 2026-05-08 03:59 | 49.36885 | -27.22331 | 32193 ft | 460 kts | 270° |
| 2026-05-08 03:59 | 49.35721 | -27.31995 | 32168 ft | 460 kts | 270° |
| 2026-05-08 04:00 | 49.34552 | -27.41629 | 32188 ft | 459 kts | 270° |
| 2026-05-08 04:00 | 49.33377 | -27.51252 | 32198 ft | 459 kts | 270° |
| 2026-05-08 04:01 | 49.32193 | -27.60871 | 32200 ft | 459 kts | 270° |
| 2026-05-08 04:01 | 49.31000 | -27.70498 | 32198 ft | 459 kts | 270° |
| 2026-05-08 04:02 | 49.29802 | -27.80093 | 32200 ft | 457 kts | 270° |
| 2026-05-08 04:02 | 49.28598 | -27.89664 | 32198 ft | 457 kts | 270° |
| 2026-05-08 04:03 | 49.27397 | -27.99154 | 32207 ft | 457 kts | 270° |
| 2026-05-08 04:03 | 49.25570 | -28.13465 | 32204 ft | 456 kts | 269° |
| 2026-05-08 04:04 | 49.24341 | -28.23008 | 32210 ft | 456 kts | 269° |
| 2026-05-08 04:04 | 49.23106 | -28.32532 | 32212 ft | 457 kts | 269° |
| 2026-05-08 04:05 | 49.21862 | -28.42062 | 32215 ft | 457 kts | 269° |
| 2026-05-08 04:05 | 49.20608 | -28.51595 | 32218 ft | 457 kts | 269° |
| 2026-05-08 04:06 | 49.19346 | -28.61132 | 32164 ft | 457 kts | 269° |
| 2026-05-08 04:06 | 49.18076 | -28.70658 | 32214 ft | 456 kts | 269° |
| 2026-05-08 04:07 | 49.16808 | -28.80113 | 32231 ft | 457 kts | 269° |
| 2026-05-08 04:07 | 49.15525 | -28.89617 | 32231 ft | 457 kts | 269° |
| 2026-05-08 04:08 | 49.14233 | -28.99126 | 32232 ft | 457 kts | 269° |
| 2026-05-08 04:08 | 49.12930 | -29.08642 | 32198 ft | 457 kts | 268° |
| 2026-05-08 04:09 | 49.11621 | -29.18144 | 32238 ft | 457 kts | 268° |
| 2026-05-08 04:09 | 49.10305 | -29.27646 | 32250 ft | 458 kts | 268° |
| 2026-05-08 04:10 | 49.08987 | -29.37102 | 32245 ft | 458 kts | 268° |
| 2026-05-08 04:10 | 49.07650 | -29.46623 | 32238 ft | 459 kts | 268° |
| 2026-05-08 04:11 | 49.06302 | -29.56160 | 32244 ft | 459 kts | 268° |
| 2026-05-08 04:11 | 49.04950 | -29.65666 | 32250 ft | 459 kts | 268° |
| 2026-05-08 04:12 | 49.03596 | -29.75138 | 32251 ft | 460 kts | 268° |
| 2026-05-08 04:12 | 49.02225 | -29.84659 | 32253 ft | 461 kts | 268° |
| 2026-05-08 04:13 | 49.00845 | -29.94199 | 32203 ft | 461 kts | 267° |
| 2026-05-08 04:13 | 48.99452 | -30.03711 | 32249 ft | 461 kts | 267° |
| 2026-05-08 04:14 | 48.98016 | -30.13227 | 32255 ft | 462 kts | 266° |
| 2026-05-08 04:14 | 48.96561 | -30.22761 | 32268 ft | 462 kts | 266° |
| 2026-05-08 04:15 | 48.95102 | -30.32294 | 32259 ft | 462 kts | 266° |
| 2026-05-08 04:15 | 48.93638 | -30.41817 | 32262 ft | 461 kts | 266° |
| 2026-05-08 04:16 | 48.92169 | -30.51323 | 32264 ft | 462 kts | 266° |
| 2026-05-08 04:16 | 48.90702 | -30.60771 | 32269 ft | 462 kts | 266° |
| 2026-05-08 04:17 | 48.89216 | -30.70278 | 32271 ft | 462 kts | 266° |
| 2026-05-08 04:17 | 48.87721 | -30.79793 | 32229 ft | 462 kts | 266° |
| 2026-05-08 04:18 | 48.86221 | -30.89272 | 32266 ft | 462 kts | 266° |
| 2026-05-08 04:18 | 48.84712 | -30.98759 | 32281 ft | 462 kts | 266° |
| 2026-05-08 04:19 | 48.83202 | -31.08202 | 32274 ft | 463 kts | 266° |
| 2026-05-08 04:19 | 48.81674 | -31.17705 | 32274 ft | 463 kts | 266° |
| 2026-05-08 04:20 | 48.80135 | -31.27213 | 32276 ft | 463 kts | 265° |
| 2026-05-08 04:20 | 48.78591 | -31.36701 | 32276 ft | 463 kts | 265° |
| 2026-05-08 04:21 | 48.77301 | -31.44587 | 32284 ft | 464 kts | 265° |
| 2026-05-08 04:21 | 48.75486 | -31.55626 | 32288 ft | 464 kts | 265° |
| 2026-05-08 04:22 | 48.74181 | -31.63515 | 32233 ft | 464 kts | 265° |
| 2026-05-08 04:22 | 48.72604 | -31.73000 | 32273 ft | 464 kts | 265° |
| 2026-05-08 04:23 | 48.71020 | -31.82476 | 32289 ft | 465 kts | 265° |
| 2026-05-08 04:23 | 48.69426 | -31.91960 | 32294 ft | 465 kts | 265° |
| 2026-05-08 04:24 | 48.67820 | -32.01461 | 32291 ft | 466 kts | 265° |
| 2026-05-08 04:24 | 48.66205 | -32.10964 | 32270 ft | 466 kts | 264° |
| 2026-05-08 04:25 | 48.64583 | -32.20451 | 32285 ft | 466 kts | 264° |
| 2026-05-08 04:25 | 48.62952 | -32.29947 | 32298 ft | 467 kts | 264° |
| 2026-05-08 04:26 | 48.61312 | -32.39442 | 32298 ft | 467 kts | 264° |
| 2026-05-08 04:26 | 48.59660 | -32.48948 | 32307 ft | 468 kts | 264° |
| 2026-05-08 04:27 | 48.58000 | -32.58452 | 32293 ft | 468 kts | 264° |
| 2026-05-08 04:27 | 48.56333 | -32.67946 | 32304 ft | 468 kts | 264° |
| 2026-05-08 04:28 | 48.54659 | -32.77428 | 32308 ft | 467 kts | 264° |
| 2026-05-08 04:28 | 48.52989 | -32.86840 | 32309 ft | 467 kts | 264° |
| 2026-05-08 04:29 | 48.51290 | -32.96364 | 32299 ft | 467 kts | 263° |
| 2026-05-08 04:29 | 48.49597 | -33.05808 | 32304 ft | 467 kts | 263° |
| 2026-05-08 04:30 | 48.47894 | -33.15253 | 32310 ft | 467 kts | 263° |
| 2026-05-08 04:30 | 48.46193 | -33.24643 | 32310 ft | 467 kts | 263° |
| 2026-05-08 04:31 | 48.44473 | -33.34087 | 32286 ft | 467 kts | 263° |
| 2026-05-08 04:31 | 48.42746 | -33.43521 | 32301 ft | 467 kts | 263° |
| 2026-05-08 04:32 | 48.41011 | -33.52948 | 32309 ft | 467 kts | 263° |
| 2026-05-08 04:32 | 48.39269 | -33.62368 | 32310 ft | 468 kts | 263° |
| 2026-05-08 04:33 | 48.37514 | -33.71809 | 32308 ft | 468 kts | 263° |
| 2026-05-08 04:33 | 48.35754 | -33.81227 | 32302 ft | 468 kts | 262° |
| 2026-05-08 04:34 | 48.33995 | -33.90596 | 32322 ft | 468 kts | 262° |
| 2026-05-08 04:34 | 48.32216 | -34.00023 | 32321 ft | 469 kts | 262° |
| 2026-05-08 04:35 | 48.30427 | -34.09453 | 32315 ft | 470 kts | 262° |
| 2026-05-08 04:35 | 48.28627 | -34.18897 | 32309 ft | 469 kts | 262° |
| 2026-05-08 04:36 | 48.26819 | -34.28328 | 32314 ft | 470 kts | 262° |
| 2026-05-08 04:36 | 48.25004 | -34.37759 | 32319 ft | 471 kts | 262° |
| 2026-05-08 04:37 | 48.23178 | -34.47194 | 32315 ft | 471 kts | 262° |
| 2026-05-08 04:37 | 48.21344 | -34.56630 | 32287 ft | 471 kts | 261° |
| 2026-05-08 04:38 | 48.19515 | -34.65985 | 32315 ft | 471 kts | 261° |
| 2026-05-08 04:38 | 48.17666 | -34.75397 | 32323 ft | 470 kts | 261° |
| 2026-05-08 04:39 | 48.15810 | -34.84803 | 32315 ft | 470 kts | 261° |
| 2026-05-08 04:39 | 48.13945 | -34.94209 | 32319 ft | 470 kts | 261° |
| 2026-05-08 04:40 | 48.12077 | -35.03579 | 32314 ft | 469 kts | 260° |
| 2026-05-08 04:40 | 48.10213 | -35.12897 | 32322 ft | 470 kts | 260° |
| 2026-05-08 04:41 | 48.08330 | -35.22260 | 32317 ft | 470 kts | 260° |
| 2026-05-08 04:41 | 48.06439 | -35.31615 | 32323 ft | 470 kts | 260° |
| 2026-05-08 04:42 | 48.04539 | -35.40970 | 32312 ft | 469 kts | 259° |
| 2026-05-08 04:42 | 48.02635 | -35.50301 | 32320 ft | 469 kts | 259° |
| 2026-05-08 04:43 | 48.00724 | -35.59624 | 32317 ft | 469 kts | 259° |
| 2026-05-08 04:43 | 47.98804 | -35.68946 | 32325 ft | 470 kts | 259° |
| 2026-05-08 04:44 | 47.96887 | -35.78212 | 32300 ft | 470 kts | 259° |
| 2026-05-08 04:44 | 47.94950 | -35.87526 | 32318 ft | 470 kts | 259° |
| 2026-05-08 04:45 | 47.93005 | -35.96845 | 32322 ft | 471 kts | 259° |
| 2026-05-08 04:45 | 47.91049 | -36.06165 | 32326 ft | 471 kts | 259° |
| 2026-05-08 04:46 | 47.89084 | -36.15488 | 32323 ft | 471 kts | 258° |
| 2026-05-08 04:46 | 47.87109 | -36.24813 | 32314 ft | 471 kts | 258° |
| 2026-05-08 04:47 | 47.85129 | -36.34123 | 32322 ft | 472 kts | 258° |
| 2026-05-08 04:47 | 47.83137 | -36.43443 | 32326 ft | 472 kts | 258° |
| 2026-05-08 04:48 | 47.81137 | -36.52758 | 32323 ft | 472 kts | 258° |
| 2026-05-08 04:48 | 47.79142 | -36.62012 | 32327 ft | 473 kts | 258° |
| 2026-05-08 04:49 | 47.77114 | -36.71370 | 32332 ft | 473 kts | 257° |
| 2026-05-08 04:49 | 47.75103 | -36.80613 | 32332 ft | 473 kts | 257° |
| 2026-05-08 04:50 | 47.73072 | -36.89906 | 32330 ft | 473 kts | 257° |
| 2026-05-08 04:50 | 47.71035 | -36.99186 | 32322 ft | 472 kts | 257° |
| 2026-05-08 04:51 | 47.68994 | -37.08438 | 32328 ft | 472 kts | 257° |
| 2026-05-08 04:51 | 47.66944 | -37.17694 | 32332 ft | 471 kts | 257° |
| 2026-05-08 04:52 | 47.64890 | -37.26928 | 32331 ft | 471 kts | 256° |
| 2026-05-08 04:52 | 47.62827 | -37.36160 | 32309 ft | 471 kts | 256° |
| 2026-05-08 04:53 | 47.60760 | -37.45370 | 32332 ft | 471 kts | 256° |
| 2026-05-08 04:53 | 47.58699 | -37.54514 | 32336 ft | 472 kts | 256° |
| 2026-05-08 04:54 | 47.56613 | -37.63730 | 32335 ft | 472 kts | 256° |
| 2026-05-08 04:54 | 47.54517 | -37.72946 | 32334 ft | 472 kts | 255° |
| 2026-05-08 04:55 | 47.52413 | -37.82167 | 32324 ft | 473 kts | 255° |
| 2026-05-08 04:55 | 47.50298 | -37.91382 | 32337 ft | 473 kts | 255° |
| 2026-05-08 04:56 | 47.48174 | -38.00606 | 32334 ft | 474 kts | 255° |
| 2026-05-08 04:56 | 47.46040 | -38.09829 | 32335 ft | 474 kts | 254° |
| 2026-05-08 04:57 | 47.43898 | -38.19052 | 32327 ft | 475 kts | 254° |
| 2026-05-08 04:57 | 47.41746 | -38.28275 | 32333 ft | 475 kts | 253° |
| 2026-05-08 04:58 | 47.39584 | -38.37502 | 32332 ft | 476 kts | 253° |
| 2026-05-08 04:58 | 47.37412 | -38.46735 | 32332 ft | 476 kts | 253° |
| 2026-05-08 04:59 | 47.35234 | -38.55956 | 32322 ft | 476 kts | 253° |
| 2026-05-08 04:59 | 47.33061 | -38.65114 | 32331 ft | 476 kts | 253° |
| 2026-05-08 05:00 | 47.30866 | -38.74323 | 32330 ft | 476 kts | 253° |
| 2026-05-08 05:00 | 47.28667 | -38.83512 | 32329 ft | 476 kts | 253° |
| 2026-05-08 05:01 | 47.26457 | -38.92715 | 32314 ft | 476 kts | 252° |
| 2026-05-08 05:01 | 47.24241 | -39.01897 | 32328 ft | 476 kts | 252° |
| 2026-05-08 05:02 | 47.22015 | -39.11084 | 32331 ft | 476 kts | 252° |
| 2026-05-08 05:02 | 47.19783 | -39.20261 | 32323 ft | 477 kts | 252° |
| 2026-05-08 05:03 | 47.17540 | -39.29443 | 32310 ft | 477 kts | 252° |
| 2026-05-08 05:03 | 47.15291 | -39.38614 | 32324 ft | 477 kts | 251° |
| 2026-05-08 05:04 | 47.13033 | -39.47782 | 32327 ft | 477 kts | 251° |
| 2026-05-08 05:04 | 47.10764 | -39.56957 | 32313 ft | 478 kts | 251° |
| 2026-05-08 05:05 | 47.08503 | -39.66062 | 32310 ft | 478 kts | 251° |
| 2026-05-08 05:05 | 47.06219 | -39.75227 | 32316 ft | 478 kts | 251° |
| 2026-05-08 05:06 | 47.03928 | -39.84380 | 32318 ft | 478 kts | 251° |
| 2026-05-08 05:06 | 47.02017 | -39.91993 | 32315 ft | 479 kts | 251° |
| 2026-05-08 05:07 | 46.99710 | -40.01153 | 32324 ft | 479 kts | 251° |
| 2026-05-08 05:07 | 46.97457 | -40.10339 | 32323 ft | 479 kts | 251° |
| 2026-05-08 05:08 | 46.95229 | -40.19541 | 32323 ft | 479 kts | 251° |
| 2026-05-08 05:08 | 46.92990 | -40.28732 | 32326 ft | 480 kts | 251° |
| 2026-05-08 05:09 | 46.90738 | -40.37913 | 32324 ft | 480 kts | 251° |
| 2026-05-08 05:09 | 46.88470 | -40.47102 | 32325 ft | 480 kts | 251° |
| 2026-05-08 05:10 | 46.85058 | -40.60856 | 32331 ft | 480 kts | 251° |
| 2026-05-08 05:11 | 46.82789 | -40.69958 | 32329 ft | 480 kts | 251° |
| 2026-05-08 05:11 | 46.80497 | -40.79115 | 32327 ft | 479 kts | 251° |
| 2026-05-08 05:12 | 46.78201 | -40.88253 | 32333 ft | 480 kts | 251° |
| 2026-05-08 05:12 | 46.75890 | -40.97410 | 32336 ft | 480 kts | 250° |
| 2026-05-08 05:13 | 46.73575 | -41.06549 | 32335 ft | 480 kts | 250° |
| 2026-05-08 05:13 | 46.71252 | -41.15681 | 32336 ft | 481 kts | 250° |
| 2026-05-08 05:14 | 46.68917 | -41.24827 | 32333 ft | 481 kts | 250° |
| 2026-05-08 05:14 | 46.66572 | -41.33973 | 32336 ft | 482 kts | 250° |
| 2026-05-08 05:15 | 46.64236 | -41.43050 | 32335 ft | 482 kts | 250° |
| 2026-05-08 05:15 | 46.61874 | -41.52190 | 32335 ft | 483 kts | 250° |
| 2026-05-08 05:16 | 46.59500 | -41.61343 | 32332 ft | 483 kts | 250° |
| 2026-05-08 05:16 | 46.57117 | -41.70491 | 32340 ft | 484 kts | 250° |
| 2026-05-08 05:17 | 46.54725 | -41.79638 | 32339 ft | 484 kts | 250° |
| 2026-05-08 05:17 | 46.52328 | -41.88770 | 32335 ft | 484 kts | 250° |
| 2026-05-08 05:18 | 46.49919 | -41.97914 | 32330 ft | 484 kts | 250° |
| 2026-05-08 05:18 | 46.47506 | -42.07033 | 32335 ft | 484 kts | 249° |
| 2026-05-08 05:19 | 46.45104 | -42.16078 | 32339 ft | 484 kts | 249° |
| 2026-05-08 05:19 | 46.42674 | -42.25189 | 32339 ft | 484 kts | 249° |
| 2026-05-08 05:20 | 46.40240 | -42.34283 | 32339 ft | 484 kts | 250° |
| 2026-05-08 05:20 | 46.37797 | -42.43377 | 32330 ft | 485 kts | 249° |
| 2026-05-08 05:21 | 46.35343 | -42.52477 | 32335 ft | 485 kts | 249° |
| 2026-05-08 05:21 | 46.32882 | -42.61567 | 32339 ft | 485 kts | 249° |
| 2026-05-08 05:22 | 46.30414 | -42.70645 | 32339 ft | 485 kts | 250° |
| 2026-05-08 05:22 | 46.27937 | -42.79727 | 32339 ft | 485 kts | 250° |
| 2026-05-08 05:23 | 46.25457 | -42.88782 | 32339 ft | 485 kts | 250° |
| 2026-05-08 05:23 | 46.22965 | -42.97847 | 32340 ft | 485 kts | 250° |
| 2026-05-08 05:24 | 46.20485 | -43.06829 | 32341 ft | 484 kts | 250° |
| 2026-05-08 05:24 | 46.17981 | -43.15873 | 32339 ft | 484 kts | 250° |
| 2026-05-08 05:25 | 46.15475 | -43.24886 | 32337 ft | 483 kts | 250° |
| 2026-05-08 05:25 | 46.12972 | -43.33856 | 32333 ft | 482 kts | 250° |
| 2026-05-08 05:26 | 46.10464 | -43.42809 | 32335 ft | 481 kts | 251° |
| 2026-05-08 05:26 | 46.07952 | -43.51744 | 32333 ft | 480 kts | 250° |
| 2026-05-08 05:27 | 46.05437 | -43.60660 | 32331 ft | 480 kts | 250° |
| 2026-05-08 05:27 | 46.02932 | -43.69504 | 32331 ft | 480 kts | 250° |
| 2026-05-08 05:28 | 46.00407 | -43.78390 | 32328 ft | 479 kts | 251° |
| 2026-05-08 05:28 | 45.97877 | -43.87258 | 32329 ft | 479 kts | 251° |
| 2026-05-08 05:29 | 45.95338 | -43.96125 | 32328 ft | 479 kts | 250° |
| 2026-05-08 05:29 | 45.92792 | -44.04987 | 32326 ft | 479 kts | 250° |
| 2026-05-08 05:30 | 45.90241 | -44.13832 | 32323 ft | 480 kts | 250° |
| 2026-05-08 05:30 | 45.87699 | -44.22618 | 32328 ft | 480 kts | 250° |
| 2026-05-08 05:31 | 45.85130 | -44.31461 | 32325 ft | 480 kts | 250° |
| 2026-05-08 05:31 | 45.82555 | -44.40298 | 32322 ft | 480 kts | 250° |
| 2026-05-08 05:32 | 45.79969 | -44.49138 | 32316 ft | 480 kts | 250° |
| 2026-05-08 05:32 | 45.77396 | -44.57901 | 32313 ft | 480 kts | 250° |
| 2026-05-08 05:33 | 45.74800 | -44.66712 | 32311 ft | 480 kts | 250° |
| 2026-05-08 05:33 | 45.72201 | -44.75506 | 32309 ft | 480 kts | 250° |
| 2026-05-08 05:34 | 45.69592 | -44.84299 | 32295 ft | 480 kts | 251° |
| 2026-05-08 05:34 | 45.66976 | -44.93090 | 32304 ft | 480 kts | 251° |
| 2026-05-08 05:35 | 45.64352 | -45.01871 | 32302 ft | 481 kts | 251° |
| 2026-05-08 05:35 | 45.61716 | -45.10663 | 32298 ft | 481 kts | 250° |
| 2026-05-08 05:36 | 45.59070 | -45.19455 | 32299 ft | 482 kts | 251° |
| 2026-05-08 05:36 | 45.56418 | -45.28242 | 32284 ft | 482 kts | 251° |
| 2026-05-08 05:37 | 45.53753 | -45.37039 | 32283 ft | 483 kts | 251° |
| 2026-05-08 05:37 | 45.51094 | -45.45784 | 32280 ft | 483 kts | 251° |
| 2026-05-08 05:38 | 45.48413 | -45.54573 | 32287 ft | 484 kts | 251° |
| 2026-05-08 05:38 | 45.45722 | -45.63365 | 32286 ft | 484 kts | 251° |
| 2026-05-08 05:39 | 45.43023 | -45.72151 | 32282 ft | 484 kts | 251° |
| 2026-05-08 05:39 | 45.40316 | -45.80931 | 32260 ft | 485 kts | 251° |
| 2026-05-08 05:40 | 45.37614 | -45.89663 | 32274 ft | 484 kts | 251° |
| 2026-05-08 05:40 | 45.34896 | -45.98420 | 32268 ft | 483 kts | 250° |
| 2026-05-08 05:41 | 45.32179 | -46.07142 | 32268 ft | 482 kts | 250° |
| 2026-05-08 05:41 | 45.29465 | -46.15826 | 32260 ft | 480 kts | 250° |
| 2026-05-08 05:42 | 45.26749 | -46.24488 | 32258 ft | 479 kts | 250° |
| 2026-05-08 05:42 | 45.24037 | -46.33108 | 32260 ft | 477 kts | 250° |
| 2026-05-08 05:43 | 45.21324 | -46.41704 | 32254 ft | 477 kts | 250° |
| 2026-05-08 05:43 | 45.18604 | -46.50293 | 32243 ft | 477 kts | 250° |
| 2026-05-08 05:44 | 45.15884 | -46.58856 | 32253 ft | 477 kts | 250° |
| 2026-05-08 05:44 | 45.13170 | -46.67370 | 32245 ft | 477 kts | 250° |
| 2026-05-08 05:45 | 45.10426 | -46.75947 | 32241 ft | 477 kts | 250° |
| 2026-05-08 05:45 | 45.07677 | -46.84513 | 32237 ft | 478 kts | 250° |
| 2026-05-08 05:46 | 45.04924 | -46.93064 | 32233 ft | 478 kts | 250° |
| 2026-05-08 05:46 | 45.02157 | -47.01632 | 32227 ft | 478 kts | 250° |
| 2026-05-08 05:47 | 44.99401 | -47.10133 | 32228 ft | 479 kts | 250° |
| 2026-05-08 05:47 | 44.96622 | -47.18681 | 32219 ft | 478 kts | 250° |
| 2026-05-08 05:48 | 44.93837 | -47.27217 | 32221 ft | 478 kts | 250° |
| 2026-05-08 05:48 | 44.91055 | -47.35717 | 32217 ft | 476 kts | 250° |
| 2026-05-08 05:49 | 44.88275 | -47.44183 | 32209 ft | 475 kts | 249° |
| 2026-05-08 05:49 | 44.85498 | -47.52614 | 32211 ft | 473 kts | 249° |
| 2026-05-08 05:50 | 44.82723 | -47.61013 | 32205 ft | 473 kts | 249° |
| 2026-05-08 05:50 | 44.79939 | -47.69412 | 32202 ft | 473 kts | 249° |
| 2026-05-08 05:51 | 44.77152 | -47.77794 | 32202 ft | 473 kts | 249° |
| 2026-05-08 05:51 | 44.74356 | -47.86180 | 32195 ft | 474 kts | 249° |
| 2026-05-08 05:52 | 44.71544 | -47.94580 | 32188 ft | 475 kts | 249° |
| 2026-05-08 05:52 | 44.68740 | -48.02934 | 32189 ft | 476 kts | 249° |
| 2026-05-08 05:53 | 44.65901 | -48.11362 | 32179 ft | 477 kts | 249° |
| 2026-05-08 05:53 | 44.63057 | -48.19781 | 32182 ft | 477 kts | 249° |
| 2026-05-08 05:54 | 44.60686 | -48.26779 | 32184 ft | 478 kts | 249° |
| 2026-05-08 05:54 | 44.57824 | -48.35200 | 32167 ft | 478 kts | 248° |
| 2026-05-08 05:55 | 44.54953 | -48.43624 | 32149 ft | 478 kts | 248° |
| 2026-05-08 05:55 | 44.52076 | -48.52037 | 32161 ft | 478 kts | 248° |
| 2026-05-08 05:56 | 44.49190 | -48.60451 | 32155 ft | 479 kts | 248° |
| 2026-05-08 05:56 | 44.46300 | -48.68849 | 32152 ft | 479 kts | 248° |
| 2026-05-08 05:57 | 44.43408 | -48.77233 | 32147 ft | 479 kts | 247° |
| 2026-05-08 05:57 | 44.40506 | -48.85614 | 32135 ft | 478 kts | 247° |
| 2026-05-08 05:58 | 44.37598 | -48.93984 | 32139 ft | 478 kts | 247° |
| 2026-05-08 05:58 | 44.34688 | -49.02337 | 32134 ft | 478 kts | 247° |
| 2026-05-08 05:59 | 44.31772 | -49.10682 | 32121 ft | 478 kts | 246° |
| 2026-05-08 05:59 | 44.28866 | -49.18973 | 32130 ft | 478 kts | 246° |
| 2026-05-08 06:00 | 44.25937 | -49.27302 | 32123 ft | 478 kts | 246° |
| 2026-05-08 06:00 | 44.23000 | -49.35627 | 32118 ft | 478 kts | 246° |
| 2026-05-08 06:01 | 44.20062 | -49.43936 | 32114 ft | 478 kts | 246° |
| 2026-05-08 06:01 | 44.17120 | -49.52227 | 32112 ft | 477 kts | 246° |
| 2026-05-08 06:02 | 44.14178 | -49.60496 | 32099 ft | 476 kts | 246° |
| 2026-05-08 06:02 | 44.11230 | -49.68755 | 32103 ft | 476 kts | 246° |
| 2026-05-08 06:03 | 44.08284 | -49.76984 | 32102 ft | 474 kts | 246° |
| 2026-05-08 06:03 | 44.05368 | -49.85105 | 32097 ft | 470 kts | 246° |
| 2026-05-08 06:04 | 44.02449 | -49.93217 | 32081 ft | 467 kts | 246° |
| 2026-05-08 06:04 | 43.99652 | -50.01307 | 32085 ft | 462 kts | 250° |
| 2026-05-08 06:05 | 43.97578 | -50.09724 | 32081 ft | 459 kts | 253° |
| 2026-05-08 06:05 | 43.95551 | -50.18122 | 32083 ft | 459 kts | 253° |
| 2026-05-08 06:06 | 43.93495 | -50.26526 | 32073 ft | 460 kts | 253° |
| 2026-05-08 06:06 | 43.91423 | -50.34927 | 32069 ft | 461 kts | 253° |
| 2026-05-08 06:07 | 43.89337 | -50.43345 | 32075 ft | 462 kts | 252° |
| 2026-05-08 06:07 | 43.87241 | -50.51767 | 32073 ft | 463 kts | 252° |
| 2026-05-08 06:08 | 43.85135 | -50.60204 | 32053 ft | 463 kts | 252° |
| 2026-05-08 06:08 | 43.83024 | -50.68633 | 32063 ft | 463 kts | 252° |
| 2026-05-08 06:09 | 43.80910 | -50.77043 | 32044 ft | 461 kts | 252° |
| 2026-05-08 06:09 | 43.78797 | -50.85416 | 32035 ft | 459 kts | 252° |
| 2026-05-08 06:10 | 43.76688 | -50.93743 | 32037 ft | 457 kts | 252° |
| 2026-05-08 06:10 | 43.74595 | -51.01981 | 32036 ft | 456 kts | 252° |
| 2026-05-08 06:11 | 43.72484 | -51.10260 | 32027 ft | 456 kts | 251° |
| 2026-05-08 06:11 | 43.70369 | -51.18523 | 32018 ft | 456 kts | 251° |
| 2026-05-08 06:12 | 43.68245 | -51.26794 | 32016 ft | 456 kts | 251° |
| 2026-05-08 06:12 | 43.66116 | -51.35056 | 32030 ft | 456 kts | 251° |
| 2026-05-08 06:13 | 43.63979 | -51.43317 | 32006 ft | 457 kts | 251° |
| 2026-05-08 06:13 | 43.61835 | -51.51582 | 32018 ft | 457 kts | 250° |
| 2026-05-08 06:14 | 43.59703 | -51.59767 | 31997 ft | 456 kts | 250° |
| 2026-05-08 06:14 | 43.57553 | -51.67994 | 32005 ft | 455 kts | 250° |
| 2026-05-08 06:15 | 43.55400 | -51.76202 | 32002 ft | 455 kts | 250° |
| 2026-05-08 06:15 | 43.53241 | -51.84407 | 31997 ft | 455 kts | 250° |
| 2026-05-08 06:16 | 43.51081 | -51.92590 | 31996 ft | 455 kts | 250° |
| 2026-05-08 06:16 | 43.48906 | -52.00799 | 31984 ft | 455 kts | 250° |
| 2026-05-08 06:17 | 43.45637 | -52.13084 | 31986 ft | 455 kts | 250° |
| 2026-05-08 06:17 | 43.43451 | -52.21265 | 31976 ft | 456 kts | 250° |
| 2026-05-08 06:18 | 43.41259 | -52.29438 | 31993 ft | 455 kts | 250° |
| 2026-05-08 06:18 | 43.39081 | -52.37536 | 31959 ft | 454 kts | 250° |
| 2026-05-08 06:19 | 43.36886 | -52.45667 | 31953 ft | 453 kts | 250° |
| 2026-05-08 06:19 | 43.34689 | -52.53781 | 31945 ft | 452 kts | 250° |
| 2026-05-08 06:20 | 43.32487 | -52.61883 | 31958 ft | 453 kts | 250° |
| 2026-05-08 06:20 | 43.30276 | -52.69993 | 31950 ft | 454 kts | 250° |
| 2026-05-08 06:21 | 43.28053 | -52.78121 | 31938 ft | 455 kts | 249° |
| 2026-05-08 06:21 | 43.25822 | -52.86248 | 31937 ft | 455 kts | 250° |
| 2026-05-08 06:22 | 43.23585 | -52.94375 | 31935 ft | 456 kts | 249° |
| 2026-05-08 06:22 | 43.21337 | -53.02511 | 31932 ft | 456 kts | 249° |
| 2026-05-08 06:23 | 43.19082 | -53.10645 | 31931 ft | 455 kts | 249° |
| 2026-05-08 06:23 | 43.16835 | -53.18726 | 31918 ft | 453 kts | 249° |
| 2026-05-08 06:24 | 43.14596 | -53.26757 | 31915 ft | 451 kts | 248° |
| 2026-05-08 06:24 | 43.12352 | -53.34773 | 31913 ft | 449 kts | 248° |
| 2026-05-08 06:25 | 43.10126 | -53.42696 | 31909 ft | 449 kts | 248° |
| 2026-05-08 06:25 | 43.07882 | -53.50663 | 31906 ft | 449 kts | 248° |
| 2026-05-08 06:26 | 43.05627 | -53.58641 | 31905 ft | 450 kts | 248° |
| 2026-05-08 06:26 | 43.03361 | -53.66636 | 31895 ft | 451 kts | 248° |
| 2026-05-08 06:27 | 43.01083 | -53.74646 | 31891 ft | 452 kts | 248° |
| 2026-05-08 06:27 | 42.98797 | -53.82660 | 31907 ft | 453 kts | 247° |
| 2026-05-08 06:28 | 42.96507 | -53.90662 | 31892 ft | 453 kts | 247° |
| 2026-05-08 06:28 | 42.94212 | -53.98651 | 31877 ft | 451 kts | 247° |
| 2026-05-08 06:29 | 42.91919 | -54.06611 | 31878 ft | 450 kts | 247° |
| 2026-05-08 06:29 | 42.89624 | -54.14556 | 31956 ft | 452 kts | 247° |
| 2026-05-08 06:30 | 42.88483 | -54.18493 | 32309 ft | 450 kts | 247° |
| 2026-05-08 06:30 | 42.87337 | -54.22443 | 32818 ft | 445 kts | 247° |
| 2026-05-08 06:30 | 42.86203 | -54.26347 | 33354 ft | 440 kts | 248° |
| 2026-05-08 06:30 | 42.85080 | -54.30207 | 33857 ft | 436 kts | 248° |
| 2026-05-08 06:31 | 42.82831 | -54.37919 | 33867 ft | 439 kts | 248° |
| 2026-05-08 06:31 | 42.80576 | -54.45627 | 33871 ft | 436 kts | 248° |
| 2026-05-08 06:32 | 42.78331 | -54.53279 | 33859 ft | 434 kts | 248° |
| 2026-05-08 06:32 | 42.76088 | -54.60900 | 33869 ft | 434 kts | 248° |
| 2026-05-08 06:33 | 42.73847 | -54.68491 | 33868 ft | 435 kts | 248° |
| 2026-05-08 06:33 | 42.71583 | -54.76140 | 33857 ft | 436 kts | 248° |
| 2026-05-08 06:34 | 42.69309 | -54.83799 | 33863 ft | 437 kts | 247° |
| 2026-05-08 06:34 | 42.67029 | -54.91457 | 33864 ft | 437 kts | 247° |
| 2026-05-08 06:35 | 42.64743 | -54.99111 | 33845 ft | 436 kts | 247° |
| 2026-05-08 06:35 | 42.62457 | -55.06741 | 33856 ft | 435 kts | 247° |
| 2026-05-08 06:36 | 42.60172 | -55.14346 | 33857 ft | 435 kts | 247° |
| 2026-05-08 06:36 | 42.57884 | -55.21939 | 33848 ft | 434 kts | 247° |
| 2026-05-08 06:37 | 42.55596 | -55.29511 | 33853 ft | 433 kts | 247° |
| 2026-05-08 06:37 | 42.53307 | -55.37065 | 33846 ft | 433 kts | 246° |
| 2026-05-08 06:38 | 42.51013 | -55.44609 | 33844 ft | 433 kts | 246° |
| 2026-05-08 06:38 | 42.48715 | -55.52148 | 33833 ft | 432 kts | 246° |
| 2026-05-08 06:39 | 42.46429 | -55.59623 | 33855 ft | 432 kts | 246° |
| 2026-05-08 06:39 | 42.44119 | -55.67158 | 33850 ft | 433 kts | 246° |
| 2026-05-08 06:40 | 42.42198 | -55.73406 | 33841 ft | 433 kts | 246° |
| 2026-05-08 06:40 | 42.39879 | -55.80931 | 33844 ft | 434 kts | 246° |
| 2026-05-08 06:41 | 42.37550 | -55.88465 | 33827 ft | 434 kts | 246° |
| 2026-05-08 06:41 | 42.35209 | -55.96018 | 33843 ft | 435 kts | 246° |
| 2026-05-08 06:42 | 42.32858 | -56.03580 | 33840 ft | 437 kts | 246° |
| 2026-05-08 06:42 | 42.30513 | -56.11099 | 33829 ft | 438 kts | 246° |
| 2026-05-08 06:43 | 42.28138 | -56.18698 | 33818 ft | 439 kts | 246° |
| 2026-05-08 06:43 | 42.25758 | -56.26288 | 33832 ft | 439 kts | 246° |
| 2026-05-08 06:44 | 42.23367 | -56.33890 | 33834 ft | 440 kts | 246° |
| 2026-05-08 06:44 | 42.20970 | -56.41492 | 33828 ft | 440 kts | 246° |
| 2026-05-08 06:45 | 42.18565 | -56.49097 | 33801 ft | 440 kts | 246° |
| 2026-05-08 06:45 | 42.16178 | -56.56625 | 33823 ft | 439 kts | 246° |
| 2026-05-08 06:46 | 42.13770 | -56.64195 | 33817 ft | 439 kts | 246° |
| 2026-05-08 06:46 | 42.11355 | -56.71769 | 33820 ft | 439 kts | 246° |
| 2026-05-08 06:47 | 42.08940 | -56.79319 | 33814 ft | 439 kts | 246° |
| 2026-05-08 06:47 | 42.06515 | -56.86880 | 33817 ft | 439 kts | 246° |
| 2026-05-08 06:48 | 42.04089 | -56.94421 | 33807 ft | 439 kts | 246° |
| 2026-05-08 06:48 | 42.01670 | -57.01921 | 33807 ft | 439 kts | 246° |
| 2026-05-08 06:49 | 41.99235 | -57.09451 | 33810 ft | 439 kts | 245° |
| 2026-05-08 06:49 | 41.96795 | -57.16973 | 33793 ft | 439 kts | 246° |
| 2026-05-08 06:50 | 41.94350 | -57.24490 | 33807 ft | 439 kts | 245° |
| 2026-05-08 06:50 | 41.91897 | -57.32011 | 33804 ft | 440 kts | 245° |
| 2026-05-08 06:51 | 41.89438 | -57.39529 | 33810 ft | 440 kts | 245° |
| 2026-05-08 06:51 | 41.86974 | -57.47043 | 33828 ft | 440 kts | 245° |
| 2026-05-08 06:52 | 41.84502 | -57.54563 | 33815 ft | 440 kts | 245° |
| 2026-05-08 06:52 | 41.82024 | -57.62077 | 33798 ft | 440 kts | 245° |
| 2026-05-08 06:53 | 41.79544 | -57.69576 | 33800 ft | 440 kts | 245° |
| 2026-05-08 06:53 | 41.77062 | -57.77061 | 33784 ft | 439 kts | 245° |
| 2026-05-08 06:54 | 41.74573 | -57.84547 | 33796 ft | 440 kts | 245° |
| 2026-05-08 06:54 | 41.72078 | -57.92032 | 33809 ft | 441 kts | 245° |
| 2026-05-08 06:55 | 41.69574 | -57.99520 | 33804 ft | 441 kts | 245° |
| 2026-05-08 06:55 | 41.67076 | -58.06972 | 33773 ft | 442 kts | 245° |
| 2026-05-08 06:56 | 41.64554 | -58.14477 | 33787 ft | 443 kts | 245° |
| 2026-05-08 06:56 | 41.62002 | -58.22047 | 33789 ft | 444 kts | 245° |
| 2026-05-08 06:57 | 41.59479 | -58.29514 | 33785 ft | 444 kts | 245° |
| 2026-05-08 06:57 | 41.56933 | -58.37027 | 33774 ft | 443 kts | 245° |
| 2026-05-08 06:58 | 41.54386 | -58.44524 | 33777 ft | 443 kts | 245° |
| 2026-05-08 06:58 | 41.51840 | -58.51997 | 33774 ft | 442 kts | 245° |
| 2026-05-08 06:59 | 41.49303 | -58.59424 | 33772 ft | 441 kts | 245° |
| 2026-05-08 06:59 | 41.46753 | -58.66869 | 33769 ft | 441 kts | 245° |
| 2026-05-08 07:00 | 41.44200 | -58.74302 | 33769 ft | 440 kts | 245° |
| 2026-05-08 07:00 | 41.41646 | -58.81720 | 33773 ft | 440 kts | 245° |
| 2026-05-08 07:01 | 41.39090 | -58.89123 | 33766 ft | 440 kts | 245° |
| 2026-05-08 07:01 | 41.36531 | -58.96514 | 33758 ft | 438 kts | 245° |
| 2026-05-08 07:02 | 41.33994 | -59.03822 | 33759 ft | 436 kts | 245° |
| 2026-05-08 07:02 | 41.31455 | -59.11119 | 33754 ft | 434 kts | 245° |
| 2026-05-08 07:03 | 41.28919 | -59.18390 | 33745 ft | 432 kts | 245° |
| 2026-05-08 07:03 | 41.26388 | -59.25627 | 33745 ft | 431 kts | 245° |
| 2026-05-08 07:04 | 41.23856 | -59.32846 | 33752 ft | 430 kts | 245° |
| 2026-05-08 07:04 | 41.21343 | -59.39993 | 33734 ft | 429 kts | 245° |
| 2026-05-08 07:05 | 41.18815 | -59.47168 | 33734 ft | 428 kts | 245° |
| 2026-05-08 07:05 | 41.16281 | -59.54338 | 33765 ft | 429 kts | 245° |
| 2026-05-08 07:06 | 41.13735 | -59.61526 | 33733 ft | 429 kts | 244° |
| 2026-05-08 07:06 | 41.11190 | -59.68693 | 33726 ft | 430 kts | 244° |
| 2026-05-08 07:07 | 41.08634 | -59.75873 | 33726 ft | 430 kts | 244° |
| 2026-05-08 07:07 | 41.06071 | -59.83055 | 33723 ft | 431 kts | 244° |
| 2026-05-08 07:08 | 41.03526 | -59.90173 | 33725 ft | 430 kts | 244° |
| 2026-05-08 07:08 | 41.01126 | -59.97430 | 33701 ft | 430 kts | 250° |
| 2026-05-08 07:09 | 40.99559 | -60.05053 | 33712 ft | 429 kts | 256° |
| 2026-05-08 07:09 | 40.98710 | -60.12887 | 33743 ft | 430 kts | 260° |
| 2026-05-08 07:10 | 40.97983 | -60.20728 | 33712 ft | 431 kts | 260° |
| 2026-05-08 07:10 | 40.97241 | -60.28604 | 33707 ft | 432 kts | 260° |
| 2026-05-08 07:11 | 40.96482 | -60.36483 | 33690 ft | 429 kts | 260° |
| 2026-05-08 07:11 | 40.95718 | -60.44283 | 33688 ft | 426 kts | 260° |
| 2026-05-08 07:12 | 40.94951 | -60.52044 | 33692 ft | 425 kts | 259° |
| 2026-05-08 07:12 | 40.94178 | -60.59805 | 33689 ft | 426 kts | 259° |
| 2026-05-08 07:13 | 40.93398 | -60.67583 | 33680 ft | 427 kts | 259° |
| 2026-05-08 07:13 | 40.92610 | -60.75389 | 33695 ft | 428 kts | 259° |
| 2026-05-08 07:14 | 40.91821 | -60.83153 | 33677 ft | 430 kts | 259° |
| 2026-05-08 07:14 | 40.91020 | -60.90986 | 33669 ft | 430 kts | 259° |
| 2026-05-08 07:15 | 40.90214 | -60.98822 | 33665 ft | 430 kts | 259° |
| 2026-05-08 07:15 | 40.89401 | -61.06662 | 33679 ft | 430 kts | 259° |
| 2026-05-08 07:16 | 40.88586 | -61.14476 | 33664 ft | 428 kts | 259° |
| 2026-05-08 07:16 | 40.87767 | -61.22266 | 33654 ft | 427 kts | 259° |
| 2026-05-08 07:17 | 40.86946 | -61.30031 | 33638 ft | 425 kts | 259° |
| 2026-05-08 07:17 | 40.86122 | -61.37764 | 33664 ft | 424 kts | 258° |
| 2026-05-08 07:18 | 40.85298 | -61.45459 | 33655 ft | 422 kts | 258° |
| 2026-05-08 07:18 | 40.84476 | -61.53078 | 33652 ft | 421 kts | 258° |
| 2026-05-08 07:19 | 40.83645 | -61.60736 | 33654 ft | 421 kts | 258° |
| 2026-05-08 07:19 | 40.82807 | -61.68401 | 33653 ft | 421 kts | 258° |
| 2026-05-08 07:20 | 40.81964 | -61.76062 | 33657 ft | 422 kts | 258° |
| 2026-05-08 07:20 | 40.81116 | -61.83734 | 33641 ft | 422 kts | 258° |
| 2026-05-08 07:21 | 40.80263 | -61.91398 | 33650 ft | 423 kts | 258° |
| 2026-05-08 07:21 | 40.79402 | -61.99088 | 33664 ft | 424 kts | 257° |
| 2026-05-08 07:22 | 40.78537 | -62.06753 | 33660 ft | 425 kts | 257° |
| 2026-05-08 07:22 | 40.77661 | -62.14480 | 33655 ft | 426 kts | 257° |
| 2026-05-08 07:23 | 40.76780 | -62.22204 | 33661 ft | 426 kts | 257° |
| 2026-05-08 07:23 | 40.75894 | -62.29933 | 33667 ft | 426 kts | 256° |
| 2026-05-08 07:24 | 40.75002 | -62.37652 | 33660 ft | 425 kts | 256° |
| 2026-05-08 07:24 | 40.74107 | -62.45363 | 33655 ft | 425 kts | 256° |
| 2026-05-08 07:25 | 40.73208 | -62.53053 | 33688 ft | 424 kts | 256° |
| 2026-05-08 07:26 | 40.71854 | -62.64562 | 33672 ft | 423 kts | 255° |
| 2026-05-08 07:26 | 40.70943 | -62.72237 | 33671 ft | 423 kts | 255° |
| 2026-05-08 07:27 | 40.70030 | -62.79893 | 33669 ft | 422 kts | 255° |
| 2026-05-08 07:27 | 40.69267 | -62.86253 | 33668 ft | 422 kts | 255° |
| 2026-05-08 07:28 | 40.68346 | -62.93891 | 33671 ft | 422 kts | 255° |
| 2026-05-08 07:28 | 40.67418 | -63.01543 | 33674 ft | 423 kts | 254° |
| 2026-05-08 07:29 | 40.66485 | -63.09192 | 33677 ft | 423 kts | 254° |
| 2026-05-08 07:29 | 40.65547 | -63.16842 | 33700 ft | 424 kts | 254° |
| 2026-05-08 07:30 | 40.64600 | -63.24517 | 33675 ft | 424 kts | 254° |
| 2026-05-08 07:30 | 40.63649 | -63.32183 | 33683 ft | 424 kts | 254° |
| 2026-05-08 07:31 | 40.62696 | -63.39826 | 33669 ft | 423 kts | 254° |
| 2026-05-08 07:31 | 40.61739 | -63.47456 | 33690 ft | 423 kts | 254° |
| 2026-05-08 07:32 | 40.60781 | -63.55053 | 33700 ft | 423 kts | 254° |
| 2026-05-08 07:32 | 40.59813 | -63.62690 | 33695 ft | 423 kts | 254° |
| 2026-05-08 07:33 | 40.58849 | -63.70249 | 33696 ft | 422 kts | 254° |
| 2026-05-08 07:33 | 40.57875 | -63.77843 | 33738 ft | 423 kts | 254° |
| 2026-05-08 07:34 | 40.56892 | -63.85471 | 33706 ft | 423 kts | 254° |
| 2026-05-08 07:34 | 40.55906 | -63.93079 | 33710 ft | 421 kts | 254° |
| 2026-05-08 07:35 | 40.54917 | -64.00675 | 33705 ft | 420 kts | 254° |
| 2026-05-08 07:35 | 40.53927 | -64.08239 | 33735 ft | 420 kts | 255° |
| 2026-05-08 07:36 | 40.52926 | -64.15829 | 33727 ft | 421 kts | 255° |
| 2026-05-08 07:36 | 40.51922 | -64.23410 | 33719 ft | 422 kts | 255° |
| 2026-05-08 07:37 | 40.50911 | -64.31010 | 33731 ft | 422 kts | 255° |
| 2026-05-08 07:37 | 40.49899 | -64.38574 | 33764 ft | 424 kts | 255° |
| 2026-05-08 07:38 | 40.48874 | -64.46200 | 33727 ft | 424 kts | 255° |
| 2026-05-08 07:38 | 40.47845 | -64.53817 | 33732 ft | 423 kts | 255° |
| 2026-05-08 07:39 | 40.46814 | -64.61415 | 33745 ft | 422 kts | 255° |
| 2026-05-08 07:39 | 40.45777 | -64.69008 | 33741 ft | 422 kts | 255° |
| 2026-05-08 07:40 | 40.44737 | -64.76585 | 33742 ft | 421 kts | 255° |
| 2026-05-08 07:40 | 40.43694 | -64.84146 | 33742 ft | 421 kts | 255° |
| 2026-05-08 07:41 | 40.42653 | -64.91655 | 33748 ft | 420 kts | 255° |
| 2026-05-08 07:41 | 40.41602 | -64.99201 | 33771 ft | 420 kts | 255° |
| 2026-05-08 07:42 | 40.40544 | -65.06752 | 33751 ft | 421 kts | 255° |
| 2026-05-08 07:42 | 40.39482 | -65.14305 | 33744 ft | 421 kts | 255° |
| 2026-05-08 07:43 | 40.38411 | -65.21874 | 33751 ft | 422 kts | 255° |
| 2026-05-08 07:43 | 40.37337 | -65.29434 | 33750 ft | 422 kts | 255° |
| 2026-05-08 07:44 | 40.36254 | -65.37017 | 33760 ft | 424 kts | 256° |
| 2026-05-08 07:44 | 40.35163 | -65.44624 | 33753 ft | 425 kts | 256° |
| 2026-05-08 07:45 | 40.34064 | -65.52242 | 33734 ft | 425 kts | 256° |
| 2026-05-08 07:45 | 40.32969 | -65.59807 | 33739 ft | 424 kts | 256° |
| 2026-05-08 07:46 | 40.31863 | -65.67402 | 33764 ft | 425 kts | 256° |
| 2026-05-08 07:46 | 40.30752 | -65.74995 | 33760 ft | 424 kts | 256° |
| 2026-05-08 07:47 | 40.29637 | -65.82582 | 33759 ft | 424 kts | 256° |
| 2026-05-08 07:47 | 40.28518 | -65.90163 | 33759 ft | 424 kts | 256° |
| 2026-05-08 07:48 | 40.27392 | -65.97743 | 33772 ft | 424 kts | 256° |
| 2026-05-08 07:48 | 40.26264 | -66.05314 | 33764 ft | 424 kts | 256° |
| 2026-05-08 07:49 | 40.25130 | -66.12885 | 33761 ft | 423 kts | 256° |
| 2026-05-08 07:49 | 40.23992 | -66.20448 | 33757 ft | 423 kts | 256° |
| 2026-05-08 07:50 | 40.22851 | -66.27990 | 33782 ft | 423 kts | 256° |
| 2026-05-08 07:50 | 40.21706 | -66.35528 | 33769 ft | 421 kts | 256° |
| 2026-05-08 07:51 | 40.20560 | -66.43038 | 33764 ft | 420 kts | 256° |
| 2026-05-08 07:51 | 40.19412 | -66.50528 | 33764 ft | 419 kts | 256° |
| 2026-05-08 07:52 | 40.18271 | -66.57939 | 33817 ft | 418 kts | 256° |
| 2026-05-08 07:52 | 40.17121 | -66.65377 | 33771 ft | 417 kts | 256° |
| 2026-05-08 07:53 | 40.15975 | -66.72841 | 31607 ft | 443 kts | 257° |
| 2026-05-08 07:53 | 40.15388 | -66.76788 | 31435 ft | 429 kts | 256° |
| 2026-05-08 07:53 | 40.14794 | -66.80541 | 31465 ft | 414 kts | 255° |
| 2026-05-08 07:54 | 40.13597 | -66.87982 | 31628 ft | 423 kts | 255° |
| 2026-05-08 07:54 | 40.13002 | -66.91739 | 32130 ft | 419 kts | 255° |
| 2026-05-08 07:54 | 40.12420 | -66.95438 | 32768 ft | 413 kts | 255° |
| 2026-05-08 07:54 | 40.11843 | -66.99101 | 33252 ft | 410 kts | 256° |
| 2026-05-08 07:55 | 40.11290 | -67.02761 | 33601 ft | 410 kts | 257° |
| 2026-05-08 07:55 | 40.10796 | -67.06445 | 33718 ft | 415 kts | 257° |
| 2026-05-08 07:55 | 40.10325 | -67.10164 | 33747 ft | 416 kts | 258° |
| 2026-05-08 07:56 | 40.09400 | -67.17575 | 33783 ft | 411 kts | 257° |
| 2026-05-08 07:56 | 40.08465 | -67.24896 | 33815 ft | 407 kts | 258° |
| 2026-05-08 07:57 | 40.07518 | -67.32160 | 33802 ft | 405 kts | 257° |
| 2026-05-08 07:57 | 40.06569 | -67.39367 | 33794 ft | 404 kts | 257° |
| 2026-05-08 07:58 | 40.05611 | -67.46599 | 33800 ft | 404 kts | 257° |
| 2026-05-08 07:58 | 40.04647 | -67.53846 | 33799 ft | 405 kts | 257° |
| 2026-05-08 07:59 | 40.03677 | -67.61090 | 33811 ft | 406 kts | 257° |
| 2026-05-08 07:59 | 40.02701 | -67.68358 | 33805 ft | 407 kts | 257° |
| 2026-05-08 08:00 | 40.01720 | -67.75626 | 33803 ft | 407 kts | 257° |
| 2026-05-08 08:00 | 40.00734 | -67.82888 | 33800 ft | 406 kts | 258° |
| 2026-05-08 08:01 | 39.99746 | -67.90139 | 33810 ft | 405 kts | 257° |
| 2026-05-08 08:01 | 39.98755 | -67.97369 | 33803 ft | 405 kts | 257° |
| 2026-05-08 08:02 | 39.97761 | -68.04591 | 33814 ft | 405 kts | 257° |
| 2026-05-08 08:02 | 39.96763 | -68.11807 | 33813 ft | 404 kts | 257° |
| 2026-05-08 08:03 | 39.95760 | -68.19019 | 33833 ft | 404 kts | 257° |
| 2026-05-08 08:03 | 39.94752 | -68.26235 | 33825 ft | 405 kts | 257° |
| 2026-05-08 08:04 | 39.93740 | -68.33450 | 33818 ft | 404 kts | 257° |
| 2026-05-08 08:04 | 39.92726 | -68.40642 | 33819 ft | 404 kts | 257° |
| 2026-05-08 08:05 | 39.91716 | -68.47778 | 33824 ft | 402 kts | 258° |
| 2026-05-08 08:05 | 39.90699 | -68.54922 | 33864 ft | 401 kts | 258° |
| 2026-05-08 08:06 | 39.89675 | -68.62080 | 33840 ft | 401 kts | 258° |
| 2026-05-08 08:06 | 39.88652 | -68.69204 | 33829 ft | 400 kts | 258° |
| 2026-05-08 08:07 | 39.87628 | -68.76307 | 33833 ft | 399 kts | 258° |
| 2026-05-08 08:07 | 39.86598 | -68.83410 | 33832 ft | 399 kts | 258° |
| 2026-05-08 08:08 | 39.85566 | -68.90496 | 33866 ft | 399 kts | 258° |
| 2026-05-08 08:08 | 39.84531 | -68.97577 | 33849 ft | 398 kts | 258° |
| 2026-05-08 08:09 | 39.83492 | -69.04657 | 33776 ft | 397 kts | 258° |
| 2026-05-08 08:09 | 39.82455 | -69.11681 | 33828 ft | 395 kts | 258° |
| 2026-05-08 08:10 | 39.81415 | -69.18704 | 33847 ft | 394 kts | 258° |
| 2026-05-08 08:10 | 39.80373 | -69.25704 | 33858 ft | 394 kts | 258° |
| 2026-05-08 08:11 | 39.79327 | -69.32705 | 33855 ft | 394 kts | 258° |
| 2026-05-08 08:11 | 39.78284 | -69.39648 | 33852 ft | 393 kts | 258° |
| 2026-05-08 08:12 | 39.77233 | -69.46624 | 33854 ft | 393 kts | 258° |
| 2026-05-08 08:12 | 39.76177 | -69.53598 | 33907 ft | 393 kts | 258° |
| 2026-05-08 08:13 | 39.75296 | -69.59395 | 33873 ft | 393 kts | 258° |
| 2026-05-08 08:13 | 39.74231 | -69.66372 | 33860 ft | 393 kts | 258° |
| 2026-05-08 08:14 | 39.73166 | -69.73321 | 33838 ft | 392 kts | 258° |
| 2026-05-08 08:14 | 39.72100 | -69.80253 | 33862 ft | 391 kts | 258° |
| 2026-05-08 08:15 | 39.71033 | -69.87164 | 33904 ft | 390 kts | 258° |
| 2026-05-08 08:15 | 39.69962 | -69.94061 | 33884 ft | 390 kts | 258° |
| 2026-05-08 08:16 | 39.68887 | -70.00965 | 33875 ft | 389 kts | 258° |
| 2026-05-08 08:16 | 39.67811 | -70.07842 | 33872 ft | 389 kts | 258° |
| 2026-05-08 08:17 | 39.66731 | -70.14722 | 33877 ft | 389 kts | 258° |
| 2026-05-08 08:17 | 39.65648 | -70.21587 | 33919 ft | 389 kts | 258° |
| 2026-05-08 08:18 | 39.64556 | -70.28485 | 33888 ft | 390 kts | 258° |
| 2026-05-08 08:18 | 39.63462 | -70.35361 | 33863 ft | 388 kts | 259° |
| 2026-05-08 08:19 | 39.62371 | -70.42197 | 33879 ft | 386 kts | 259° |
| 2026-05-08 08:19 | 39.61286 | -70.48970 | 33884 ft | 385 kts | 258° |
| 2026-05-08 08:20 | 39.60194 | -70.55757 | 33916 ft | 385 kts | 259° |
| 2026-05-08 08:20 | 39.59095 | -70.62563 | 33900 ft | 385 kts | 259° |
| 2026-05-08 08:21 | 39.57995 | -70.69347 | 33892 ft | 385 kts | 258° |
| 2026-05-08 08:21 | 39.56891 | -70.76129 | 33897 ft | 385 kts | 258° |
| 2026-05-08 08:22 | 39.55781 | -70.82918 | 33896 ft | 385 kts | 258° |
| 2026-05-08 08:22 | 39.54669 | -70.89700 | 33931 ft | 386 kts | 258° |
| 2026-05-08 08:23 | 39.53553 | -70.96475 | 33883 ft | 386 kts | 259° |
| 2026-05-08 08:23 | 39.52430 | -71.03268 | 33897 ft | 385 kts | 259° |
| 2026-05-08 08:24 | 39.51307 | -71.10037 | 33900 ft | 384 kts | 259° |
| 2026-05-08 08:24 | 39.50183 | -71.16787 | 33910 ft | 383 kts | 259° |
| 2026-05-08 08:25 | 39.49055 | -71.23531 | 33915 ft | 383 kts | 259° |
| 2026-05-08 08:25 | 39.47923 | -71.30275 | 33915 ft | 383 kts | 259° |
| 2026-05-08 08:26 | 39.46790 | -71.37000 | 33911 ft | 383 kts | 259° |
| 2026-05-08 08:26 | 39.45652 | -71.43735 | 33912 ft | 383 kts | 258° |
| 2026-05-08 08:27 | 39.44518 | -71.50419 | 33919 ft | 383 kts | 258° |
| 2026-05-08 08:27 | 39.43374 | -71.57137 | 33950 ft | 383 kts | 259° |
| 2026-05-08 08:28 | 39.42227 | -71.63874 | 33909 ft | 380 kts | 261° |
| 2026-05-08 08:28 | 39.42232 | -71.70668 | 33926 ft | 380 kts | 275° |
| 2026-05-08 08:29 | 39.43320 | -71.77370 | 33911 ft | 386 kts | 286° |
| 2026-05-08 08:29 | 39.45654 | -71.83667 | 33920 ft | 389 kts | 289° |
| 2026-05-08 08:30 | 39.48055 | -71.89953 | 33958 ft | 390 kts | 289° |
| 2026-05-08 08:30 | 39.51621 | -71.99449 | 33926 ft | 394 kts | 289° |
| 2026-05-08 08:31 | 39.54004 | -72.05852 | 33926 ft | 395 kts | 289° |
| 2026-05-08 08:31 | 39.56387 | -72.12279 | 33922 ft | 396 kts | 289° |
| 2026-05-08 08:32 | 39.58773 | -72.18728 | 33926 ft | 396 kts | 289° |
| 2026-05-08 08:32 | 39.61154 | -72.25179 | 33925 ft | 396 kts | 289° |
| 2026-05-08 08:33 | 39.63532 | -72.31636 | 33923 ft | 396 kts | 289° |
| 2026-05-08 08:33 | 39.65906 | -72.38093 | 33917 ft | 396 kts | 289° |
| 2026-05-08 08:34 | 39.68269 | -72.44538 | 33922 ft | 395 kts | 289° |
| 2026-05-08 08:34 | 39.70630 | -72.50990 | 33923 ft | 395 kts | 289° |
| 2026-05-08 08:35 | 39.72965 | -72.57385 | 33925 ft | 394 kts | 289° |
| 2026-05-08 08:35 | 39.75311 | -72.63827 | 33935 ft | 395 kts | 289° |
| 2026-05-08 08:36 | 39.77661 | -72.70292 | 33924 ft | 395 kts | 289° |
| 2026-05-08 08:36 | 39.80007 | -72.76777 | 33924 ft | 395 kts | 288° |
| 2026-05-08 08:37 | 39.81508 | -72.83549 | 33926 ft | 388 kts | 277° |
| 2026-05-08 08:37 | 39.82201 | -72.90469 | 33917 ft | 385 kts | 269° |
| 2026-05-08 08:38 | 39.82070 | -72.97437 | 33928 ft | 386 kts | 268° |
| 2026-05-08 08:38 | 39.81897 | -73.04443 | 33924 ft | 387 kts | 268° |
| 2026-05-08 08:39 | 39.81739 | -73.11414 | 33924 ft | 389 kts | 268° |
| 2026-05-08 08:39 | 39.81586 | -73.18450 | 33924 ft | 390 kts | 268° |
| 2026-05-08 08:40 | 39.81432 | -73.25506 | 33930 ft | 390 kts | 268° |
| 2026-05-08 08:40 | 39.81275 | -73.32559 | 33935 ft | 391 kts | 268° |
| 2026-05-08 08:41 | 39.81113 | -73.39639 | 33937 ft | 392 kts | 268° |
| 2026-05-08 08:41 | 39.80947 | -73.46719 | 33928 ft | 392 kts | 268° |
| 2026-05-08 08:42 | 39.80776 | -73.53812 | 33930 ft | 392 kts | 268° |
| 2026-05-08 08:42 | 39.80600 | -73.60907 | 33931 ft | 392 kts | 268° |
| 2026-05-08 08:43 | 39.80420 | -73.67991 | 33954 ft | 392 kts | 268° |
| 2026-05-08 08:43 | 39.80236 | -73.75085 | 33930 ft | 392 kts | 268° |
| 2026-05-08 08:44 | 39.80049 | -73.82165 | 33935 ft | 391 kts | 268° |
| 2026-05-08 08:44 | 39.79858 | -73.89233 | 33933 ft | 391 kts | 268° |
| 2026-05-08 08:45 | 39.79743 | -73.96294 | 33932 ft | 391 kts | 271° |
| 2026-05-08 08:45 | 39.80051 | -74.03345 | 33932 ft | 391 kts | 272° |
| 2026-05-08 08:46 | 39.80360 | -74.10389 | 33917 ft | 389 kts | 272° |
| 2026-05-08 08:46 | 39.80656 | -74.17412 | 33940 ft | 388 kts | 272° |
| 2026-05-08 08:47 | 39.80943 | -74.24361 | 33940 ft | 387 kts | 272° |
| 2026-05-08 08:47 | 39.81227 | -74.31343 | 33949 ft | 386 kts | 272° |
| 2026-05-08 08:48 | 39.81507 | -74.38317 | 33950 ft | 386 kts | 272° |
| 2026-05-08 08:48 | 39.81797 | -74.45287 | 33940 ft | 386 kts | 273° |
| 2026-05-08 08:49 | 39.82198 | -74.52257 | 33922 ft | 386 kts | 274° |
| 2026-05-08 08:49 | 39.82620 | -74.59231 | 33934 ft | 387 kts | 273° |
| 2026-05-08 08:50 | 39.83030 | -74.66207 | 33954 ft | 387 kts | 273° |
| 2026-05-08 08:50 | 39.83429 | -74.73188 | 33945 ft | 387 kts | 273° |
| 2026-05-08 08:51 | 39.83821 | -74.80184 | 33967 ft | 387 kts | 273° |
| 2026-05-08 08:51 | 39.84208 | -74.87168 | 33967 ft | 387 kts | 273° |
| 2026-05-08 08:52 | 39.84592 | -74.94155 | 33962 ft | 387 kts | 273° |
| 2026-05-08 08:52 | 39.84971 | -75.01141 | 33966 ft | 387 kts | 273° |
| 2026-05-08 08:53 | 39.85346 | -75.08133 | 33990 ft | 387 kts | 273° |
| 2026-05-08 08:53 | 39.85719 | -75.15146 | 33971 ft | 388 kts | 273° |
| 2026-05-08 08:54 | 39.86086 | -75.22155 | 33972 ft | 388 kts | 273° |
| 2026-05-08 08:54 | 39.86449 | -75.29154 | 33972 ft | 388 kts | 273° |
| 2026-05-08 08:55 | 39.86806 | -75.36114 | 33971 ft | 387 kts | 273° |
| 2026-05-08 08:55 | 39.87160 | -75.43108 | 33980 ft | 387 kts | 273° |
| 2026-05-08 08:56 | 39.87510 | -75.50123 | 34005 ft | 389 kts | 273° |
| 2026-05-08 08:56 | 39.87862 | -75.57242 | 34015 ft | 398 kts | 273° |
| 2026-05-08 08:57 | 39.88213 | -75.64437 | 34003 ft | 399 kts | 273° |
| 2026-05-08 08:57 | 39.88560 | -75.71624 | 34000 ft | 398 kts | 273° |
| 2026-05-08 08:58 | 39.88902 | -75.78829 | 34014 ft | 397 kts | 273° |
| 2026-05-08 08:58 | 39.89183 | -75.84800 | 34000 ft | 397 kts | 273° |
| 2026-05-08 08:59 | 39.89515 | -75.91967 | 33983 ft | 396 kts | 273° |
| 2026-05-08 08:59 | 39.89842 | -75.99112 | 33975 ft | 395 kts | 273° |
| 2026-05-08 09:00 | 39.90165 | -76.06243 | 33979 ft | 394 kts | 273° |
| 2026-05-08 09:00 | 39.90484 | -76.13363 | 33973 ft | 394 kts | 273° |
| 2026-05-08 09:01 | 39.90796 | -76.20483 | 33977 ft | 394 kts | 273° |
| 2026-05-08 09:01 | 39.91110 | -76.27619 | 33979 ft | 394 kts | 273° |
| 2026-05-08 09:02 | 39.91419 | -76.34754 | 33973 ft | 395 kts | 273° |
| 2026-05-08 09:02 | 39.91723 | -76.41886 | 33971 ft | 395 kts | 273° |
| 2026-05-08 09:03 | 39.92025 | -76.49034 | 33984 ft | 395 kts | 273° |
| 2026-05-08 09:03 | 39.92323 | -76.56187 | 33990 ft | 395 kts | 273° |
| 2026-05-08 09:04 | 39.92616 | -76.63339 | 33997 ft | 396 kts | 273° |
| 2026-05-08 09:04 | 39.92906 | -76.70523 | 34000 ft | 397 kts | 272° |
| 2026-05-08 09:05 | 39.93184 | -76.77670 | 34001 ft | 397 kts | 272° |
| 2026-05-08 09:05 | 39.93456 | -76.84862 | 34000 ft | 397 kts | 272° |
| 2026-05-08 09:06 | 39.93727 | -76.92071 | 33992 ft | 398 kts | 272° |
| 2026-05-08 09:06 | 39.93993 | -76.99265 | 33996 ft | 398 kts | 272° |
| 2026-05-08 09:07 | 39.94256 | -77.06477 | 33994 ft | 398 kts | 272° |
| 2026-05-08 09:07 | 39.94516 | -77.13686 | 33999 ft | 398 kts | 272° |
| 2026-05-08 09:08 | 39.94778 | -77.20837 | 34003 ft | 397 kts | 272° |
| 2026-05-08 09:08 | 39.95038 | -77.28037 | 34004 ft | 397 kts | 272° |
| 2026-05-08 09:09 | 39.95283 | -77.35232 | 34007 ft | 397 kts | 272° |
| 2026-05-08 09:09 | 39.95517 | -77.42422 | 34018 ft | 396 kts | 272° |
| 2026-05-08 09:10 | 39.95743 | -77.49614 | 34016 ft | 397 kts | 272° |
| 2026-05-08 09:10 | 39.95953 | -77.56746 | 34012 ft | 397 kts | 272° |